<?xml version="1.0" encoding="UTF-8" standalone="no" ?>
<gpx xmlns="http://www.topografix.com/GPX/1/1" xmlns:xsi="http://www.w3.org/2001/XMLSchema-instance" xsi:schemaLocation="http://www.topografix.com/GPX/1/1 http://www.topografix.com/GPX/1/1/gpx.xsd" version="1.1" creator="VisuGPX - https://www.visugpx.com">
  <metadata>
    <name>Pic du TARBESOU 10/02/17</name>
    <desc><![CDATA[Beau parcours hivernal.
Nous n'avons pas fait le tracé habituel qui descend du sommet au col, car la pente est forte sur 100 m de D  et le manteau ne nous a pas semblé suffisamment stabilisé.]]></desc>
  </metadata>
  <trk>
    <name><![CDATA[10-FEV-17 15:25:03]]></name>
    <trkseg>
      <trkpt lat="42.72727" lon="1.9652">
        <ele>1693.98</ele>
        <time>2017-02-10T08:28:49Z</time>
      </trkpt>
      <trkpt lat="42.72729" lon="1.96522">
        <ele>1693.98</ele>
        <time>2017-02-10T08:32:00Z</time>
      </trkpt>
      <trkpt lat="42.72738" lon="1.96533">
        <ele>1695.9</ele>
        <time>2017-02-10T08:32:16Z</time>
      </trkpt>
      <trkpt lat="42.72744" lon="1.96544">
        <ele>1697.34</ele>
        <time>2017-02-10T08:32:30Z</time>
      </trkpt>
      <trkpt lat="42.72747" lon="1.96557">
        <ele>1699.27</ele>
        <time>2017-02-10T08:32:45Z</time>
      </trkpt>
      <trkpt lat="42.72749" lon="1.96573">
        <ele>1699.27</ele>
        <time>2017-02-10T08:32:58Z</time>
      </trkpt>
      <trkpt lat="42.72756" lon="1.96584">
        <ele>1700.71</ele>
        <time>2017-02-10T08:33:11Z</time>
      </trkpt>
      <trkpt lat="42.72761" lon="1.96598">
        <ele>1701.67</ele>
        <time>2017-02-10T08:33:24Z</time>
      </trkpt>
      <trkpt lat="42.72767" lon="1.96612">
        <ele>1702.63</ele>
        <time>2017-02-10T08:33:37Z</time>
      </trkpt>
      <trkpt lat="42.72773" lon="1.96623">
        <ele>1704.07</ele>
        <time>2017-02-10T08:33:51Z</time>
      </trkpt>
      <trkpt lat="42.72779" lon="1.96636">
        <ele>1705.04</ele>
        <time>2017-02-10T08:34:05Z</time>
      </trkpt>
      <trkpt lat="42.72783" lon="1.9665">
        <ele>1706.48</ele>
        <time>2017-02-10T08:34:20Z</time>
      </trkpt>
      <trkpt lat="42.72788" lon="1.96662">
        <ele>1707.44</ele>
        <time>2017-02-10T08:34:34Z</time>
      </trkpt>
      <trkpt lat="42.72793" lon="1.96673">
        <ele>1707.92</ele>
        <time>2017-02-10T08:34:48Z</time>
      </trkpt>
      <trkpt lat="42.72798" lon="1.96687">
        <ele>1710.32</ele>
        <time>2017-02-10T08:35:03Z</time>
      </trkpt>
      <trkpt lat="42.72802" lon="1.96698">
        <ele>1711.28</ele>
        <time>2017-02-10T08:35:16Z</time>
      </trkpt>
      <trkpt lat="42.72807" lon="1.96709">
        <ele>1712.73</ele>
        <time>2017-02-10T08:35:31Z</time>
      </trkpt>
      <trkpt lat="42.72811" lon="1.96723">
        <ele>1714.65</ele>
        <time>2017-02-10T08:35:47Z</time>
      </trkpt>
      <trkpt lat="42.72815" lon="1.96737">
        <ele>1716.57</ele>
        <time>2017-02-10T08:36:02Z</time>
      </trkpt>
      <trkpt lat="42.72819" lon="1.9675">
        <ele>1718.01</ele>
        <time>2017-02-10T08:36:17Z</time>
      </trkpt>
      <trkpt lat="42.72824" lon="1.96762">
        <ele>1719.94</ele>
        <time>2017-02-10T08:36:34Z</time>
      </trkpt>
      <trkpt lat="42.72829" lon="1.96773">
        <ele>1721.86</ele>
        <time>2017-02-10T08:36:51Z</time>
      </trkpt>
      <trkpt lat="42.72835" lon="1.96785">
        <ele>1723.78</ele>
        <time>2017-02-10T08:37:08Z</time>
      </trkpt>
      <trkpt lat="42.7284" lon="1.96799">
        <ele>1726.67</ele>
        <time>2017-02-10T08:37:26Z</time>
      </trkpt>
      <trkpt lat="42.72844" lon="1.96812">
        <ele>1728.59</ele>
        <time>2017-02-10T08:37:45Z</time>
      </trkpt>
      <trkpt lat="42.72849" lon="1.96825">
        <ele>1730.03</ele>
        <time>2017-02-10T08:38:02Z</time>
      </trkpt>
      <trkpt lat="42.72854" lon="1.96838">
        <ele>1732.43</ele>
        <time>2017-02-10T08:38:19Z</time>
      </trkpt>
      <trkpt lat="42.72857" lon="1.96853">
        <ele>1733.39</ele>
        <time>2017-02-10T08:38:35Z</time>
      </trkpt>
      <trkpt lat="42.72862" lon="1.96865">
        <ele>1735.32</ele>
        <time>2017-02-10T08:38:53Z</time>
      </trkpt>
      <trkpt lat="42.72867" lon="1.96877">
        <ele>1737.24</ele>
        <time>2017-02-10T08:39:11Z</time>
      </trkpt>
      <trkpt lat="42.72871" lon="1.96891">
        <ele>1739.64</ele>
        <time>2017-02-10T08:39:28Z</time>
      </trkpt>
      <trkpt lat="42.72878" lon="1.96904">
        <ele>1741.57</ele>
        <time>2017-02-10T08:39:45Z</time>
      </trkpt>
      <trkpt lat="42.72883" lon="1.96916">
        <ele>1743.49</ele>
        <time>2017-02-10T08:40:02Z</time>
      </trkpt>
      <trkpt lat="42.72888" lon="1.96929">
        <ele>1745.41</ele>
        <time>2017-02-10T08:40:20Z</time>
      </trkpt>
      <trkpt lat="42.72897" lon="1.96936">
        <ele>1746.37</ele>
        <time>2017-02-10T08:41:18Z</time>
      </trkpt>
      <trkpt lat="42.729" lon="1.96953">
        <ele>1747.81</ele>
        <time>2017-02-10T08:41:40Z</time>
      </trkpt>
      <trkpt lat="42.72905" lon="1.96964">
        <ele>1749.74</ele>
        <time>2017-02-10T08:41:56Z</time>
      </trkpt>
      <trkpt lat="42.72911" lon="1.96976">
        <ele>1751.18</ele>
        <time>2017-02-10T08:42:12Z</time>
      </trkpt>
      <trkpt lat="42.72917" lon="1.96986">
        <ele>1752.62</ele>
        <time>2017-02-10T08:42:28Z</time>
      </trkpt>
      <trkpt lat="42.72922" lon="1.96997">
        <ele>1754.54</ele>
        <time>2017-02-10T08:42:43Z</time>
      </trkpt>
      <trkpt lat="42.72928" lon="1.97009">
        <ele>1756.47</ele>
        <time>2017-02-10T08:42:59Z</time>
      </trkpt>
      <trkpt lat="42.72932" lon="1.97022">
        <ele>1758.39</ele>
        <time>2017-02-10T08:43:15Z</time>
      </trkpt>
      <trkpt lat="42.72936" lon="1.97035">
        <ele>1759.35</ele>
        <time>2017-02-10T08:43:29Z</time>
      </trkpt>
      <trkpt lat="42.72939" lon="1.97047">
        <ele>1760.31</ele>
        <time>2017-02-10T08:43:44Z</time>
      </trkpt>
      <trkpt lat="42.72944" lon="1.9706">
        <ele>1761.75</ele>
        <time>2017-02-10T08:43:59Z</time>
      </trkpt>
      <trkpt lat="42.72949" lon="1.97072">
        <ele>1762.23</ele>
        <time>2017-02-10T08:44:12Z</time>
      </trkpt>
      <trkpt lat="42.72953" lon="1.97085">
        <ele>1763.68</ele>
        <time>2017-02-10T08:44:27Z</time>
      </trkpt>
      <trkpt lat="42.72959" lon="1.97096">
        <ele>1764.64</ele>
        <time>2017-02-10T08:44:42Z</time>
      </trkpt>
      <trkpt lat="42.72965" lon="1.97108">
        <ele>1765.6</ele>
        <time>2017-02-10T08:44:57Z</time>
      </trkpt>
      <trkpt lat="42.72969" lon="1.9712">
        <ele>1767.04</ele>
        <time>2017-02-10T08:45:11Z</time>
      </trkpt>
      <trkpt lat="42.72974" lon="1.97131">
        <ele>1768.48</ele>
        <time>2017-02-10T08:45:25Z</time>
      </trkpt>
      <trkpt lat="42.72978" lon="1.97143">
        <ele>1769.92</ele>
        <time>2017-02-10T08:45:38Z</time>
      </trkpt>
      <trkpt lat="42.72985" lon="1.97152">
        <ele>1769.92</ele>
        <time>2017-02-10T08:45:52Z</time>
      </trkpt>
      <trkpt lat="42.72991" lon="1.97164">
        <ele>1768.96</ele>
        <time>2017-02-10T08:46:06Z</time>
      </trkpt>
      <trkpt lat="42.7299" lon="1.97176">
        <ele>1769.44</ele>
        <time>2017-02-10T08:46:17Z</time>
      </trkpt>
      <trkpt lat="42.72985" lon="1.97189">
        <ele>1770.41</ele>
        <time>2017-02-10T08:46:31Z</time>
      </trkpt>
      <trkpt lat="42.72985" lon="1.97202">
        <ele>1770.89</ele>
        <time>2017-02-10T08:46:44Z</time>
      </trkpt>
      <trkpt lat="42.72986" lon="1.97217">
        <ele>1772.81</ele>
        <time>2017-02-10T08:46:59Z</time>
      </trkpt>
      <trkpt lat="42.72987" lon="1.97232">
        <ele>1774.25</ele>
        <time>2017-02-10T08:47:14Z</time>
      </trkpt>
      <trkpt lat="42.7299" lon="1.97244">
        <ele>1774.73</ele>
        <time>2017-02-10T08:47:29Z</time>
      </trkpt>
      <trkpt lat="42.72991" lon="1.97256">
        <ele>1777.13</ele>
        <time>2017-02-10T08:47:43Z</time>
      </trkpt>
      <trkpt lat="42.72993" lon="1.9727">
        <ele>1778.1</ele>
        <time>2017-02-10T08:47:58Z</time>
      </trkpt>
      <trkpt lat="42.72996" lon="1.97283">
        <ele>1778.58</ele>
        <time>2017-02-10T08:48:10Z</time>
      </trkpt>
      <trkpt lat="42.72999" lon="1.97294">
        <ele>1780.5</ele>
        <time>2017-02-10T08:48:25Z</time>
      </trkpt>
      <trkpt lat="42.73001" lon="1.97308">
        <ele>1782.42</ele>
        <time>2017-02-10T08:48:41Z</time>
      </trkpt>
      <trkpt lat="42.73004" lon="1.9732">
        <ele>1783.86</ele>
        <time>2017-02-10T08:48:55Z</time>
      </trkpt>
      <trkpt lat="42.73008" lon="1.97333">
        <ele>1784.34</ele>
        <time>2017-02-10T08:49:09Z</time>
      </trkpt>
      <trkpt lat="42.73012" lon="1.97344">
        <ele>1784.82</ele>
        <time>2017-02-10T08:49:23Z</time>
      </trkpt>
      <trkpt lat="42.73016" lon="1.97356">
        <ele>1785.31</ele>
        <time>2017-02-10T08:49:37Z</time>
      </trkpt>
      <trkpt lat="42.7302" lon="1.97369">
        <ele>1785.79</ele>
        <time>2017-02-10T08:49:50Z</time>
      </trkpt>
      <trkpt lat="42.73024" lon="1.97381">
        <ele>1786.75</ele>
        <time>2017-02-10T08:50:03Z</time>
      </trkpt>
      <trkpt lat="42.73028" lon="1.97393">
        <ele>1787.23</ele>
        <time>2017-02-10T08:50:15Z</time>
      </trkpt>
      <trkpt lat="42.73031" lon="1.97406">
        <ele>1788.67</ele>
        <time>2017-02-10T08:50:28Z</time>
      </trkpt>
      <trkpt lat="42.73034" lon="1.97419">
        <ele>1790.11</ele>
        <time>2017-02-10T08:50:43Z</time>
      </trkpt>
      <trkpt lat="42.73035" lon="1.97431">
        <ele>1790.59</ele>
        <time>2017-02-10T08:50:56Z</time>
      </trkpt>
      <trkpt lat="42.73037" lon="1.97442">
        <ele>1791.55</ele>
        <time>2017-02-10T08:51:09Z</time>
      </trkpt>
      <trkpt lat="42.7304" lon="1.97455">
        <ele>1792.52</ele>
        <time>2017-02-10T08:51:23Z</time>
      </trkpt>
      <trkpt lat="42.73044" lon="1.97468">
        <ele>1793</ele>
        <time>2017-02-10T08:51:35Z</time>
      </trkpt>
      <trkpt lat="42.73044" lon="1.97482">
        <ele>1793.96</ele>
        <time>2017-02-10T08:51:49Z</time>
      </trkpt>
      <trkpt lat="42.73043" lon="1.97497">
        <ele>1793.96</ele>
        <time>2017-02-10T08:52:02Z</time>
      </trkpt>
      <trkpt lat="42.73044" lon="1.9751">
        <ele>1795.4</ele>
        <time>2017-02-10T08:52:14Z</time>
      </trkpt>
      <trkpt lat="42.73043" lon="1.97523">
        <ele>1795.4</ele>
        <time>2017-02-10T08:52:26Z</time>
      </trkpt>
      <trkpt lat="42.73043" lon="1.97537">
        <ele>1795.4</ele>
        <time>2017-02-10T08:52:38Z</time>
      </trkpt>
      <trkpt lat="42.73043" lon="1.9755">
        <ele>1794.92</ele>
        <time>2017-02-10T08:52:49Z</time>
      </trkpt>
      <trkpt lat="42.73043" lon="1.97564">
        <ele>1794.92</ele>
        <time>2017-02-10T08:53:01Z</time>
      </trkpt>
      <trkpt lat="42.73044" lon="1.97577">
        <ele>1795.88</ele>
        <time>2017-02-10T08:53:13Z</time>
      </trkpt>
      <trkpt lat="42.73047" lon="1.97589">
        <ele>1795.88</ele>
        <time>2017-02-10T08:53:24Z</time>
      </trkpt>
      <trkpt lat="42.73049" lon="1.97602">
        <ele>1795.4</ele>
        <time>2017-02-10T08:53:35Z</time>
      </trkpt>
      <trkpt lat="42.73051" lon="1.97613">
        <ele>1794.44</ele>
        <time>2017-02-10T08:53:46Z</time>
      </trkpt>
      <trkpt lat="42.73055" lon="1.97625">
        <ele>1794.44</ele>
        <time>2017-02-10T08:54:00Z</time>
      </trkpt>
      <trkpt lat="42.73059" lon="1.97635">
        <ele>1794.92</ele>
        <time>2017-02-10T08:54:13Z</time>
      </trkpt>
      <trkpt lat="42.73064" lon="1.97647">
        <ele>1795.88</ele>
        <time>2017-02-10T08:54:26Z</time>
      </trkpt>
      <trkpt lat="42.73067" lon="1.97659">
        <ele>1795.88</ele>
        <time>2017-02-10T08:54:39Z</time>
      </trkpt>
      <trkpt lat="42.7307" lon="1.97672">
        <ele>1797.32</ele>
        <time>2017-02-10T08:54:52Z</time>
      </trkpt>
      <trkpt lat="42.73073" lon="1.97685">
        <ele>1797.8</ele>
        <time>2017-02-10T08:55:07Z</time>
      </trkpt>
      <trkpt lat="42.73077" lon="1.97698">
        <ele>1797.8</ele>
        <time>2017-02-10T08:55:19Z</time>
      </trkpt>
      <trkpt lat="42.7308" lon="1.9771">
        <ele>1798.76</ele>
        <time>2017-02-10T08:55:33Z</time>
      </trkpt>
      <trkpt lat="42.73083" lon="1.97722">
        <ele>1799.24</ele>
        <time>2017-02-10T08:55:47Z</time>
      </trkpt>
      <trkpt lat="42.73083" lon="1.97735">
        <ele>1799.73</ele>
        <time>2017-02-10T08:56:12Z</time>
      </trkpt>
      <trkpt lat="42.73088" lon="1.97748">
        <ele>1800.69</ele>
        <time>2017-02-10T08:56:26Z</time>
      </trkpt>
      <trkpt lat="42.73093" lon="1.9776">
        <ele>1800.69</ele>
        <time>2017-02-10T08:56:41Z</time>
      </trkpt>
      <trkpt lat="42.73098" lon="1.97771">
        <ele>1802.13</ele>
        <time>2017-02-10T08:56:54Z</time>
      </trkpt>
      <trkpt lat="42.73104" lon="1.9778">
        <ele>1802.61</ele>
        <time>2017-02-10T08:57:25Z</time>
      </trkpt>
      <trkpt lat="42.73111" lon="1.97787">
        <ele>1805.01</ele>
        <time>2017-02-10T08:57:41Z</time>
      </trkpt>
      <trkpt lat="42.73121" lon="1.97793">
        <ele>1806.94</ele>
        <time>2017-02-10T08:58:00Z</time>
      </trkpt>
      <trkpt lat="42.73128" lon="1.97798">
        <ele>1809.82</ele>
        <time>2017-02-10T08:58:19Z</time>
      </trkpt>
      <trkpt lat="42.73135" lon="1.97805">
        <ele>1811.74</ele>
        <time>2017-02-10T08:58:38Z</time>
      </trkpt>
      <trkpt lat="42.73144" lon="1.97811">
        <ele>1814.15</ele>
        <time>2017-02-10T08:58:57Z</time>
      </trkpt>
      <trkpt lat="42.73151" lon="1.97817">
        <ele>1816.07</ele>
        <time>2017-02-10T08:59:38Z</time>
      </trkpt>
      <trkpt lat="42.73159" lon="1.97825">
        <ele>1817.99</ele>
        <time>2017-02-10T08:59:55Z</time>
      </trkpt>
      <trkpt lat="42.73163" lon="1.97833">
        <ele>1819.43</ele>
        <time>2017-02-10T09:00:17Z</time>
      </trkpt>
      <trkpt lat="42.73168" lon="1.97845">
        <ele>1821.35</ele>
        <time>2017-02-10T09:00:35Z</time>
      </trkpt>
      <trkpt lat="42.73174" lon="1.97851">
        <ele>1822.32</ele>
        <time>2017-02-10T09:03:38Z</time>
      </trkpt>
      <trkpt lat="42.73179" lon="1.97863">
        <ele>1823.76</ele>
        <time>2017-02-10T09:03:52Z</time>
      </trkpt>
      <trkpt lat="42.73185" lon="1.97873">
        <ele>1825.2</ele>
        <time>2017-02-10T09:04:05Z</time>
      </trkpt>
      <trkpt lat="42.7319" lon="1.97885">
        <ele>1826.64</ele>
        <time>2017-02-10T09:04:18Z</time>
      </trkpt>
      <trkpt lat="42.73195" lon="1.97895">
        <ele>1827.12</ele>
        <time>2017-02-10T09:04:34Z</time>
      </trkpt>
      <trkpt lat="42.73198" lon="1.97908">
        <ele>1828.56</ele>
        <time>2017-02-10T09:04:49Z</time>
      </trkpt>
      <trkpt lat="42.73203" lon="1.97919">
        <ele>1830.01</ele>
        <time>2017-02-10T09:05:05Z</time>
      </trkpt>
      <trkpt lat="42.73209" lon="1.9793">
        <ele>1830.49</ele>
        <time>2017-02-10T09:05:22Z</time>
      </trkpt>
      <trkpt lat="42.73215" lon="1.97944">
        <ele>1831.93</ele>
        <time>2017-02-10T09:05:41Z</time>
      </trkpt>
      <trkpt lat="42.73214" lon="1.97958">
        <ele>1832.89</ele>
        <time>2017-02-10T09:05:55Z</time>
      </trkpt>
      <trkpt lat="42.73216" lon="1.9797">
        <ele>1834.33</ele>
        <time>2017-02-10T09:06:11Z</time>
      </trkpt>
      <trkpt lat="42.73216" lon="1.97983">
        <ele>1835.29</ele>
        <time>2017-02-10T09:06:29Z</time>
      </trkpt>
      <trkpt lat="42.73218" lon="1.97996">
        <ele>1837.22</ele>
        <time>2017-02-10T09:06:45Z</time>
      </trkpt>
      <trkpt lat="42.73221" lon="1.98007">
        <ele>1838.18</ele>
        <time>2017-02-10T09:07:00Z</time>
      </trkpt>
      <trkpt lat="42.73227" lon="1.9802">
        <ele>1840.1</ele>
        <time>2017-02-10T09:07:19Z</time>
      </trkpt>
      <trkpt lat="42.73231" lon="1.98031">
        <ele>1841.54</ele>
        <time>2017-02-10T09:07:33Z</time>
      </trkpt>
      <trkpt lat="42.73234" lon="1.98043">
        <ele>1842.5</ele>
        <time>2017-02-10T09:07:51Z</time>
      </trkpt>
      <trkpt lat="42.73237" lon="1.98053">
        <ele>1844.43</ele>
        <time>2017-02-10T09:08:08Z</time>
      </trkpt>
      <trkpt lat="42.73243" lon="1.98064">
        <ele>1845.87</ele>
        <time>2017-02-10T09:08:25Z</time>
      </trkpt>
      <trkpt lat="42.73248" lon="1.98075">
        <ele>1847.31</ele>
        <time>2017-02-10T09:08:44Z</time>
      </trkpt>
      <trkpt lat="42.73257" lon="1.98083">
        <ele>1849.71</ele>
        <time>2017-02-10T09:09:24Z</time>
      </trkpt>
      <trkpt lat="42.73264" lon="1.9809">
        <ele>1852.6</ele>
        <time>2017-02-10T09:09:51Z</time>
      </trkpt>
      <trkpt lat="42.73269" lon="1.98098">
        <ele>1855</ele>
        <time>2017-02-10T09:10:15Z</time>
      </trkpt>
      <trkpt lat="42.73269" lon="1.98089">
        <ele>1857.4</ele>
        <time>2017-02-10T09:11:05Z</time>
      </trkpt>
      <trkpt lat="42.73272" lon="1.98076">
        <ele>1860.29</ele>
        <time>2017-02-10T09:11:28Z</time>
      </trkpt>
      <trkpt lat="42.73276" lon="1.98066">
        <ele>1861.73</ele>
        <time>2017-02-10T09:11:49Z</time>
      </trkpt>
      <trkpt lat="42.73277" lon="1.98051">
        <ele>1864.61</ele>
        <time>2017-02-10T09:12:09Z</time>
      </trkpt>
      <trkpt lat="42.7328" lon="1.9804">
        <ele>1866.54</ele>
        <time>2017-02-10T09:12:29Z</time>
      </trkpt>
      <trkpt lat="42.73286" lon="1.98032">
        <ele>1870.38</ele>
        <time>2017-02-10T09:13:20Z</time>
      </trkpt>
      <trkpt lat="42.73295" lon="1.98024">
        <ele>1873.75</ele>
        <time>2017-02-10T09:14:07Z</time>
      </trkpt>
      <trkpt lat="42.73299" lon="1.98016">
        <ele>1877.11</ele>
        <time>2017-02-10T09:14:29Z</time>
      </trkpt>
      <trkpt lat="42.73304" lon="1.98029">
        <ele>1880</ele>
        <time>2017-02-10T09:14:55Z</time>
      </trkpt>
      <trkpt lat="42.73309" lon="1.98036">
        <ele>1882.88</ele>
        <time>2017-02-10T09:15:24Z</time>
      </trkpt>
      <trkpt lat="42.73315" lon="1.98045">
        <ele>1884.32</ele>
        <time>2017-02-10T09:17:04Z</time>
      </trkpt>
      <trkpt lat="42.73316" lon="1.98057">
        <ele>1885.28</ele>
        <time>2017-02-10T09:17:17Z</time>
      </trkpt>
      <trkpt lat="42.73321" lon="1.98069">
        <ele>1885.76</ele>
        <time>2017-02-10T09:17:32Z</time>
      </trkpt>
      <trkpt lat="42.73329" lon="1.98079">
        <ele>1887.21</ele>
        <time>2017-02-10T09:17:45Z</time>
      </trkpt>
      <trkpt lat="42.73335" lon="1.9809">
        <ele>1888.65</ele>
        <time>2017-02-10T09:17:59Z</time>
      </trkpt>
      <trkpt lat="42.7334" lon="1.98099">
        <ele>1890.09</ele>
        <time>2017-02-10T09:18:12Z</time>
      </trkpt>
      <trkpt lat="42.73344" lon="1.9811">
        <ele>1890.57</ele>
        <time>2017-02-10T09:18:24Z</time>
      </trkpt>
      <trkpt lat="42.73349" lon="1.98122">
        <ele>1891.53</ele>
        <time>2017-02-10T09:18:56Z</time>
      </trkpt>
      <trkpt lat="42.73356" lon="1.98132">
        <ele>1892.97</ele>
        <time>2017-02-10T09:19:09Z</time>
      </trkpt>
      <trkpt lat="42.73362" lon="1.98143">
        <ele>1893.45</ele>
        <time>2017-02-10T09:19:21Z</time>
      </trkpt>
      <trkpt lat="42.73367" lon="1.98152">
        <ele>1895.38</ele>
        <time>2017-02-10T09:19:34Z</time>
      </trkpt>
      <trkpt lat="42.73372" lon="1.98164">
        <ele>1895.86</ele>
        <time>2017-02-10T09:20:08Z</time>
      </trkpt>
      <trkpt lat="42.73378" lon="1.98174">
        <ele>1896.82</ele>
        <time>2017-02-10T09:20:20Z</time>
      </trkpt>
      <trkpt lat="42.73383" lon="1.98185">
        <ele>1898.26</ele>
        <time>2017-02-10T09:20:33Z</time>
      </trkpt>
      <trkpt lat="42.73389" lon="1.98195">
        <ele>1899.22</ele>
        <time>2017-02-10T09:20:46Z</time>
      </trkpt>
      <trkpt lat="42.73394" lon="1.98208">
        <ele>1900.18</ele>
        <time>2017-02-10T09:21:00Z</time>
      </trkpt>
      <trkpt lat="42.734" lon="1.9822">
        <ele>1901.63</ele>
        <time>2017-02-10T09:21:13Z</time>
      </trkpt>
      <trkpt lat="42.73404" lon="1.98233">
        <ele>1903.07</ele>
        <time>2017-02-10T09:21:27Z</time>
      </trkpt>
      <trkpt lat="42.73407" lon="1.98245">
        <ele>1903.55</ele>
        <time>2017-02-10T09:21:40Z</time>
      </trkpt>
      <trkpt lat="42.7341" lon="1.98255">
        <ele>1904.51</ele>
        <time>2017-02-10T09:21:54Z</time>
      </trkpt>
      <trkpt lat="42.73413" lon="1.98268">
        <ele>1905.47</ele>
        <time>2017-02-10T09:22:08Z</time>
      </trkpt>
      <trkpt lat="42.73415" lon="1.98281">
        <ele>1906.91</ele>
        <time>2017-02-10T09:22:24Z</time>
      </trkpt>
      <trkpt lat="42.73418" lon="1.98293">
        <ele>1907.87</ele>
        <time>2017-02-10T09:22:37Z</time>
      </trkpt>
      <trkpt lat="42.73418" lon="1.98305">
        <ele>1908.83</ele>
        <time>2017-02-10T09:22:50Z</time>
      </trkpt>
      <trkpt lat="42.73418" lon="1.9832">
        <ele>1909.8</ele>
        <time>2017-02-10T09:23:03Z</time>
      </trkpt>
      <trkpt lat="42.73418" lon="1.98334">
        <ele>1911.24</ele>
        <time>2017-02-10T09:23:17Z</time>
      </trkpt>
      <trkpt lat="42.73418" lon="1.98347">
        <ele>1911.24</ele>
        <time>2017-02-10T09:23:32Z</time>
      </trkpt>
      <trkpt lat="42.73415" lon="1.98361">
        <ele>1912.68</ele>
        <time>2017-02-10T09:23:47Z</time>
      </trkpt>
      <trkpt lat="42.73413" lon="1.98372">
        <ele>1913.64</ele>
        <time>2017-02-10T09:24:09Z</time>
      </trkpt>
      <trkpt lat="42.7341" lon="1.98383">
        <ele>1914.12</ele>
        <time>2017-02-10T09:24:22Z</time>
      </trkpt>
      <trkpt lat="42.73407" lon="1.98396">
        <ele>1915.56</ele>
        <time>2017-02-10T09:24:34Z</time>
      </trkpt>
      <trkpt lat="42.73405" lon="1.98408">
        <ele>1915.56</ele>
        <time>2017-02-10T09:24:46Z</time>
      </trkpt>
      <trkpt lat="42.7341" lon="1.98416">
        <ele>1916.53</ele>
        <time>2017-02-10T09:25:05Z</time>
      </trkpt>
      <trkpt lat="42.73409" lon="1.98428">
        <ele>1917.97</ele>
        <time>2017-02-10T09:25:40Z</time>
      </trkpt>
      <trkpt lat="42.73409" lon="1.98441">
        <ele>1917.97</ele>
        <time>2017-02-10T09:25:53Z</time>
      </trkpt>
      <trkpt lat="42.73408" lon="1.98453">
        <ele>1919.41</ele>
        <time>2017-02-10T09:26:05Z</time>
      </trkpt>
      <trkpt lat="42.73407" lon="1.98466">
        <ele>1920.37</ele>
        <time>2017-02-10T09:26:17Z</time>
      </trkpt>
      <trkpt lat="42.73405" lon="1.98479">
        <ele>1920.85</ele>
        <time>2017-02-10T09:26:30Z</time>
      </trkpt>
      <trkpt lat="42.73402" lon="1.98489">
        <ele>1920.85</ele>
        <time>2017-02-10T09:26:41Z</time>
      </trkpt>
      <trkpt lat="42.73397" lon="1.98498">
        <ele>1921.81</ele>
        <time>2017-02-10T09:26:53Z</time>
      </trkpt>
      <trkpt lat="42.73394" lon="1.98508">
        <ele>1922.77</ele>
        <time>2017-02-10T09:27:06Z</time>
      </trkpt>
      <trkpt lat="42.73392" lon="1.98519">
        <ele>1923.74</ele>
        <time>2017-02-10T09:27:18Z</time>
      </trkpt>
      <trkpt lat="42.73387" lon="1.9853">
        <ele>1924.7</ele>
        <time>2017-02-10T09:27:31Z</time>
      </trkpt>
      <trkpt lat="42.73384" lon="1.98541">
        <ele>1925.66</ele>
        <time>2017-02-10T09:28:13Z</time>
      </trkpt>
      <trkpt lat="42.7338" lon="1.98554">
        <ele>1926.62</ele>
        <time>2017-02-10T09:28:25Z</time>
      </trkpt>
      <trkpt lat="42.73374" lon="1.98566">
        <ele>1928.06</ele>
        <time>2017-02-10T09:28:38Z</time>
      </trkpt>
      <trkpt lat="42.73368" lon="1.98578">
        <ele>1928.54</ele>
        <time>2017-02-10T09:28:50Z</time>
      </trkpt>
      <trkpt lat="42.73363" lon="1.98589">
        <ele>1929.98</ele>
        <time>2017-02-10T09:29:01Z</time>
      </trkpt>
      <trkpt lat="42.73357" lon="1.98598">
        <ele>1931.43</ele>
        <time>2017-02-10T09:29:13Z</time>
      </trkpt>
      <trkpt lat="42.73353" lon="1.98609">
        <ele>1930.95</ele>
        <time>2017-02-10T09:29:24Z</time>
      </trkpt>
      <trkpt lat="42.73348" lon="1.98618">
        <ele>1932.39</ele>
        <time>2017-02-10T09:29:35Z</time>
      </trkpt>
      <trkpt lat="42.73344" lon="1.98628">
        <ele>1933.83</ele>
        <time>2017-02-10T09:29:46Z</time>
      </trkpt>
      <trkpt lat="42.73339" lon="1.98639">
        <ele>1933.83</ele>
        <time>2017-02-10T09:29:57Z</time>
      </trkpt>
      <trkpt lat="42.73335" lon="1.98648">
        <ele>1935.75</ele>
        <time>2017-02-10T09:30:07Z</time>
      </trkpt>
      <trkpt lat="42.7333" lon="1.98658">
        <ele>1935.75</ele>
        <time>2017-02-10T09:30:19Z</time>
      </trkpt>
      <trkpt lat="42.73327" lon="1.98669">
        <ele>1935.27</ele>
        <time>2017-02-10T09:30:30Z</time>
      </trkpt>
      <trkpt lat="42.73321" lon="1.98679">
        <ele>1939.12</ele>
        <time>2017-02-10T09:30:42Z</time>
      </trkpt>
      <trkpt lat="42.73317" lon="1.98689">
        <ele>1938.64</ele>
        <time>2017-02-10T09:30:53Z</time>
      </trkpt>
      <trkpt lat="42.73313" lon="1.98699">
        <ele>1940.08</ele>
        <time>2017-02-10T09:31:05Z</time>
      </trkpt>
      <trkpt lat="42.73307" lon="1.98709">
        <ele>1942</ele>
        <time>2017-02-10T09:31:17Z</time>
      </trkpt>
      <trkpt lat="42.73303" lon="1.9872">
        <ele>1942.48</ele>
        <time>2017-02-10T09:31:29Z</time>
      </trkpt>
      <trkpt lat="42.73297" lon="1.98731">
        <ele>1943.92</ele>
        <time>2017-02-10T09:31:41Z</time>
      </trkpt>
      <trkpt lat="42.73292" lon="1.98741">
        <ele>1944.4</ele>
        <time>2017-02-10T09:31:52Z</time>
      </trkpt>
      <trkpt lat="42.73286" lon="1.98751">
        <ele>1945.36</ele>
        <time>2017-02-10T09:32:04Z</time>
      </trkpt>
      <trkpt lat="42.73282" lon="1.98761">
        <ele>1946.81</ele>
        <time>2017-02-10T09:32:16Z</time>
      </trkpt>
      <trkpt lat="42.73275" lon="1.98769">
        <ele>1947.77</ele>
        <time>2017-02-10T09:32:27Z</time>
      </trkpt>
      <trkpt lat="42.73266" lon="1.98769">
        <ele>1949.21</ele>
        <time>2017-02-10T09:32:39Z</time>
      </trkpt>
      <trkpt lat="42.73257" lon="1.9877">
        <ele>1948.73</ele>
        <time>2017-02-10T09:32:51Z</time>
      </trkpt>
      <trkpt lat="42.73247" lon="1.9877">
        <ele>1950.17</ele>
        <time>2017-02-10T09:33:05Z</time>
      </trkpt>
      <trkpt lat="42.73237" lon="1.9877">
        <ele>1951.61</ele>
        <time>2017-02-10T09:33:20Z</time>
      </trkpt>
      <trkpt lat="42.73228" lon="1.98771">
        <ele>1952.09</ele>
        <time>2017-02-10T09:33:35Z</time>
      </trkpt>
      <trkpt lat="42.7322" lon="1.9877">
        <ele>1954.02</ele>
        <time>2017-02-10T09:33:49Z</time>
      </trkpt>
      <trkpt lat="42.73211" lon="1.9877">
        <ele>1955.46</ele>
        <time>2017-02-10T09:34:03Z</time>
      </trkpt>
      <trkpt lat="42.73201" lon="1.9877">
        <ele>1954.98</ele>
        <time>2017-02-10T09:34:24Z</time>
      </trkpt>
      <trkpt lat="42.73193" lon="1.98771">
        <ele>1956.9</ele>
        <time>2017-02-10T09:34:42Z</time>
      </trkpt>
      <trkpt lat="42.73186" lon="1.98768">
        <ele>1958.34</ele>
        <time>2017-02-10T09:34:59Z</time>
      </trkpt>
      <trkpt lat="42.73177" lon="1.98764">
        <ele>1956.9</ele>
        <time>2017-02-10T09:35:37Z</time>
      </trkpt>
      <trkpt lat="42.73167" lon="1.98766">
        <ele>1958.82</ele>
        <time>2017-02-10T09:36:07Z</time>
      </trkpt>
      <trkpt lat="42.7316" lon="1.9876">
        <ele>1958.34</ele>
        <time>2017-02-10T09:36:18Z</time>
      </trkpt>
      <trkpt lat="42.73152" lon="1.98754">
        <ele>1958.34</ele>
        <time>2017-02-10T09:36:29Z</time>
      </trkpt>
      <trkpt lat="42.73143" lon="1.98753">
        <ele>1958.82</ele>
        <time>2017-02-10T09:36:40Z</time>
      </trkpt>
      <trkpt lat="42.73133" lon="1.98749">
        <ele>1959.78</ele>
        <time>2017-02-10T09:36:51Z</time>
      </trkpt>
      <trkpt lat="42.73125" lon="1.98745">
        <ele>1959.78</ele>
        <time>2017-02-10T09:37:03Z</time>
      </trkpt>
      <trkpt lat="42.73116" lon="1.98741">
        <ele>1960.75</ele>
        <time>2017-02-10T09:37:15Z</time>
      </trkpt>
      <trkpt lat="42.73107" lon="1.98737">
        <ele>1960.75</ele>
        <time>2017-02-10T09:37:28Z</time>
      </trkpt>
      <trkpt lat="42.73097" lon="1.98733">
        <ele>1962.19</ele>
        <time>2017-02-10T09:37:42Z</time>
      </trkpt>
      <trkpt lat="42.73089" lon="1.98727">
        <ele>1962.67</ele>
        <time>2017-02-10T09:37:54Z</time>
      </trkpt>
      <trkpt lat="42.73081" lon="1.98721">
        <ele>1963.15</ele>
        <time>2017-02-10T09:38:10Z</time>
      </trkpt>
      <trkpt lat="42.73073" lon="1.98716">
        <ele>1963.15</ele>
        <time>2017-02-10T09:38:25Z</time>
      </trkpt>
      <trkpt lat="42.73065" lon="1.98715">
        <ele>1965.55</ele>
        <time>2017-02-10T09:38:37Z</time>
      </trkpt>
      <trkpt lat="42.73056" lon="1.98711">
        <ele>1965.07</ele>
        <time>2017-02-10T09:38:50Z</time>
      </trkpt>
      <trkpt lat="42.73047" lon="1.98709">
        <ele>1964.59</ele>
        <time>2017-02-10T09:39:03Z</time>
      </trkpt>
      <trkpt lat="42.73039" lon="1.98705">
        <ele>1966.03</ele>
        <time>2017-02-10T09:39:16Z</time>
      </trkpt>
      <trkpt lat="42.7303" lon="1.987">
        <ele>1966.03</ele>
        <time>2017-02-10T09:39:30Z</time>
      </trkpt>
      <trkpt lat="42.73021" lon="1.98695">
        <ele>1966.03</ele>
        <time>2017-02-10T09:39:43Z</time>
      </trkpt>
      <trkpt lat="42.73012" lon="1.98692">
        <ele>1968.92</ele>
        <time>2017-02-10T09:39:56Z</time>
      </trkpt>
      <trkpt lat="42.73004" lon="1.98685">
        <ele>1968.92</ele>
        <time>2017-02-10T09:40:10Z</time>
      </trkpt>
      <trkpt lat="42.72995" lon="1.98673">
        <ele>1969.4</ele>
        <time>2017-02-10T09:41:31Z</time>
      </trkpt>
      <trkpt lat="42.72987" lon="1.98666">
        <ele>1968.92</ele>
        <time>2017-02-10T09:42:09Z</time>
      </trkpt>
      <trkpt lat="42.72979" lon="1.98658">
        <ele>1969.4</ele>
        <time>2017-02-10T09:42:22Z</time>
      </trkpt>
      <trkpt lat="42.72972" lon="1.98651">
        <ele>1969.4</ele>
        <time>2017-02-10T09:42:34Z</time>
      </trkpt>
      <trkpt lat="42.72968" lon="1.98638">
        <ele>1974.2</ele>
        <time>2017-02-10T09:42:47Z</time>
      </trkpt>
      <trkpt lat="42.72962" lon="1.98628">
        <ele>1972.76</ele>
        <time>2017-02-10T09:43:20Z</time>
      </trkpt>
      <trkpt lat="42.72952" lon="1.98621">
        <ele>1974.2</ele>
        <time>2017-02-10T09:43:34Z</time>
      </trkpt>
      <trkpt lat="42.72943" lon="1.98615">
        <ele>1974.2</ele>
        <time>2017-02-10T09:43:46Z</time>
      </trkpt>
      <trkpt lat="42.72935" lon="1.98609">
        <ele>1976.13</ele>
        <time>2017-02-10T09:43:58Z</time>
      </trkpt>
      <trkpt lat="42.72927" lon="1.98601">
        <ele>1975.65</ele>
        <time>2017-02-10T09:44:12Z</time>
      </trkpt>
      <trkpt lat="42.72923" lon="1.98603">
        <ele>1975.65</ele>
        <time>2017-02-10T09:45:21Z</time>
      </trkpt>
      <trkpt lat="42.72916" lon="1.98592">
        <ele>1977.57</ele>
        <time>2017-02-10T09:45:33Z</time>
      </trkpt>
      <trkpt lat="42.7291" lon="1.98582">
        <ele>1977.09</ele>
        <time>2017-02-10T09:45:47Z</time>
      </trkpt>
      <trkpt lat="42.72902" lon="1.98574">
        <ele>1977.09</ele>
        <time>2017-02-10T09:46:03Z</time>
      </trkpt>
      <trkpt lat="42.72894" lon="1.98565">
        <ele>1978.05</ele>
        <time>2017-02-10T09:46:27Z</time>
      </trkpt>
      <trkpt lat="42.72884" lon="1.98558">
        <ele>1979.01</ele>
        <time>2017-02-10T09:46:41Z</time>
      </trkpt>
      <trkpt lat="42.72875" lon="1.98551">
        <ele>1979.01</ele>
        <time>2017-02-10T09:47:16Z</time>
      </trkpt>
      <trkpt lat="42.72868" lon="1.98543">
        <ele>1980.45</ele>
        <time>2017-02-10T09:47:27Z</time>
      </trkpt>
      <trkpt lat="42.7286" lon="1.98536">
        <ele>1980.93</ele>
        <time>2017-02-10T09:47:38Z</time>
      </trkpt>
      <trkpt lat="42.72851" lon="1.9853">
        <ele>1980.93</ele>
        <time>2017-02-10T09:47:50Z</time>
      </trkpt>
      <trkpt lat="42.72841" lon="1.98522">
        <ele>1981.41</ele>
        <time>2017-02-10T09:48:05Z</time>
      </trkpt>
      <trkpt lat="42.72832" lon="1.98516">
        <ele>1980.93</ele>
        <time>2017-02-10T09:48:16Z</time>
      </trkpt>
      <trkpt lat="42.72824" lon="1.98511">
        <ele>1982.86</ele>
        <time>2017-02-10T09:48:37Z</time>
      </trkpt>
      <trkpt lat="42.72815" lon="1.98505">
        <ele>1983.34</ele>
        <time>2017-02-10T09:48:50Z</time>
      </trkpt>
      <trkpt lat="42.72806" lon="1.985">
        <ele>1984.78</ele>
        <time>2017-02-10T09:49:03Z</time>
      </trkpt>
      <trkpt lat="42.72796" lon="1.98496">
        <ele>1984.3</ele>
        <time>2017-02-10T09:49:16Z</time>
      </trkpt>
      <trkpt lat="42.72787" lon="1.98492">
        <ele>1985.26</ele>
        <time>2017-02-10T09:49:30Z</time>
      </trkpt>
      <trkpt lat="42.72778" lon="1.98488">
        <ele>1985.26</ele>
        <time>2017-02-10T09:49:42Z</time>
      </trkpt>
      <trkpt lat="42.72768" lon="1.98485">
        <ele>1986.22</ele>
        <time>2017-02-10T09:49:53Z</time>
      </trkpt>
      <trkpt lat="42.72759" lon="1.98481">
        <ele>1987.66</ele>
        <time>2017-02-10T09:50:04Z</time>
      </trkpt>
      <trkpt lat="42.7275" lon="1.98478">
        <ele>1987.66</ele>
        <time>2017-02-10T09:50:16Z</time>
      </trkpt>
      <trkpt lat="42.72742" lon="1.98473">
        <ele>1989.1</ele>
        <time>2017-02-10T09:50:28Z</time>
      </trkpt>
      <trkpt lat="42.72734" lon="1.98469">
        <ele>1989.1</ele>
        <time>2017-02-10T09:50:39Z</time>
      </trkpt>
      <trkpt lat="42.72725" lon="1.98466">
        <ele>1990.07</ele>
        <time>2017-02-10T09:50:51Z</time>
      </trkpt>
      <trkpt lat="42.72715" lon="1.98462">
        <ele>1990.07</ele>
        <time>2017-02-10T09:51:03Z</time>
      </trkpt>
      <trkpt lat="42.72706" lon="1.98457">
        <ele>1991.03</ele>
        <time>2017-02-10T09:51:15Z</time>
      </trkpt>
      <trkpt lat="42.72695" lon="1.98454">
        <ele>1991.99</ele>
        <time>2017-02-10T09:51:26Z</time>
      </trkpt>
      <trkpt lat="42.72687" lon="1.98452">
        <ele>1992.95</ele>
        <time>2017-02-10T09:51:38Z</time>
      </trkpt>
      <trkpt lat="42.72683" lon="1.98444">
        <ele>1992.95</ele>
        <time>2017-02-10T09:53:56Z</time>
      </trkpt>
      <trkpt lat="42.72674" lon="1.98438">
        <ele>1993.91</ele>
        <time>2017-02-10T09:54:09Z</time>
      </trkpt>
      <trkpt lat="42.72667" lon="1.98431">
        <ele>1994.39</ele>
        <time>2017-02-10T09:54:23Z</time>
      </trkpt>
      <trkpt lat="42.72658" lon="1.98425">
        <ele>1994.87</ele>
        <time>2017-02-10T09:54:36Z</time>
      </trkpt>
      <trkpt lat="42.72649" lon="1.98421">
        <ele>1995.83</ele>
        <time>2017-02-10T09:54:50Z</time>
      </trkpt>
      <trkpt lat="42.7264" lon="1.98417">
        <ele>1997.28</ele>
        <time>2017-02-10T09:55:05Z</time>
      </trkpt>
      <trkpt lat="42.7263" lon="1.98417">
        <ele>1998.72</ele>
        <time>2017-02-10T09:55:19Z</time>
      </trkpt>
      <trkpt lat="42.7262" lon="1.98415">
        <ele>2000.16</ele>
        <time>2017-02-10T09:55:33Z</time>
      </trkpt>
      <trkpt lat="42.72611" lon="1.98412">
        <ele>2001.6</ele>
        <time>2017-02-10T09:55:48Z</time>
      </trkpt>
      <trkpt lat="42.72602" lon="1.98408">
        <ele>2003.04</ele>
        <time>2017-02-10T09:56:03Z</time>
      </trkpt>
      <trkpt lat="42.72594" lon="1.98404">
        <ele>2003.04</ele>
        <time>2017-02-10T09:56:16Z</time>
      </trkpt>
      <trkpt lat="42.72585" lon="1.98398">
        <ele>2004.01</ele>
        <time>2017-02-10T09:56:29Z</time>
      </trkpt>
      <trkpt lat="42.72576" lon="1.98394">
        <ele>2004.97</ele>
        <time>2017-02-10T09:56:43Z</time>
      </trkpt>
      <trkpt lat="42.72567" lon="1.98388">
        <ele>2005.93</ele>
        <time>2017-02-10T09:56:58Z</time>
      </trkpt>
      <trkpt lat="42.72559" lon="1.98382">
        <ele>2006.41</ele>
        <time>2017-02-10T09:57:12Z</time>
      </trkpt>
      <trkpt lat="42.7255" lon="1.98378">
        <ele>2007.37</ele>
        <time>2017-02-10T09:57:28Z</time>
      </trkpt>
      <trkpt lat="42.72541" lon="1.98371">
        <ele>2008.33</ele>
        <time>2017-02-10T09:57:44Z</time>
      </trkpt>
      <trkpt lat="42.72532" lon="1.98365">
        <ele>2008.33</ele>
        <time>2017-02-10T09:57:57Z</time>
      </trkpt>
      <trkpt lat="42.72523" lon="1.98359">
        <ele>2008.81</ele>
        <time>2017-02-10T09:58:10Z</time>
      </trkpt>
      <trkpt lat="42.72514" lon="1.98353">
        <ele>2009.29</ele>
        <time>2017-02-10T09:58:22Z</time>
      </trkpt>
      <trkpt lat="42.72505" lon="1.98347">
        <ele>2010.25</ele>
        <time>2017-02-10T09:58:34Z</time>
      </trkpt>
      <trkpt lat="42.72497" lon="1.98342">
        <ele>2010.73</ele>
        <time>2017-02-10T09:58:47Z</time>
      </trkpt>
      <trkpt lat="42.72491" lon="1.98337">
        <ele>2011.22</ele>
        <time>2017-02-10T09:59:00Z</time>
      </trkpt>
      <trkpt lat="42.72484" lon="1.9833">
        <ele>2011.7</ele>
        <time>2017-02-10T09:59:13Z</time>
      </trkpt>
      <trkpt lat="42.72476" lon="1.98325">
        <ele>2012.66</ele>
        <time>2017-02-10T09:59:26Z</time>
      </trkpt>
      <trkpt lat="42.72467" lon="1.98319">
        <ele>2013.14</ele>
        <time>2017-02-10T09:59:38Z</time>
      </trkpt>
      <trkpt lat="42.72458" lon="1.98314">
        <ele>2013.14</ele>
        <time>2017-02-10T09:59:49Z</time>
      </trkpt>
      <trkpt lat="42.72447" lon="1.9831">
        <ele>2013.62</ele>
        <time>2017-02-10T10:00:01Z</time>
      </trkpt>
      <trkpt lat="42.72439" lon="1.98304">
        <ele>2014.1</ele>
        <time>2017-02-10T10:00:12Z</time>
      </trkpt>
      <trkpt lat="42.72431" lon="1.98297">
        <ele>2014.58</ele>
        <time>2017-02-10T10:00:24Z</time>
      </trkpt>
      <trkpt lat="42.72424" lon="1.9829">
        <ele>2015.54</ele>
        <time>2017-02-10T10:00:35Z</time>
      </trkpt>
      <trkpt lat="42.72414" lon="1.98286">
        <ele>2016.02</ele>
        <time>2017-02-10T10:00:46Z</time>
      </trkpt>
      <trkpt lat="42.72406" lon="1.98283">
        <ele>2018.43</ele>
        <time>2017-02-10T10:00:59Z</time>
      </trkpt>
      <trkpt lat="42.72404" lon="1.98276">
        <ele>2019.39</ele>
        <time>2017-02-10T10:01:14Z</time>
      </trkpt>
      <trkpt lat="42.72394" lon="1.98266">
        <ele>2019.87</ele>
        <time>2017-02-10T10:01:27Z</time>
      </trkpt>
      <trkpt lat="42.72384" lon="1.98261">
        <ele>2019.39</ele>
        <time>2017-02-10T10:01:39Z</time>
      </trkpt>
      <trkpt lat="42.72375" lon="1.98255">
        <ele>2020.83</ele>
        <time>2017-02-10T10:01:51Z</time>
      </trkpt>
      <trkpt lat="42.72367" lon="1.9825">
        <ele>2021.79</ele>
        <time>2017-02-10T10:02:03Z</time>
      </trkpt>
      <trkpt lat="42.72362" lon="1.98242">
        <ele>2024.19</ele>
        <time>2017-02-10T10:02:20Z</time>
      </trkpt>
      <trkpt lat="42.72353" lon="1.98237">
        <ele>2025.64</ele>
        <time>2017-02-10T10:02:36Z</time>
      </trkpt>
      <trkpt lat="42.72346" lon="1.98229">
        <ele>2026.6</ele>
        <time>2017-02-10T10:02:53Z</time>
      </trkpt>
      <trkpt lat="42.72339" lon="1.98218">
        <ele>2028.04</ele>
        <time>2017-02-10T10:03:15Z</time>
      </trkpt>
      <trkpt lat="42.72331" lon="1.98217">
        <ele>2029.96</ele>
        <time>2017-02-10T10:03:35Z</time>
      </trkpt>
      <trkpt lat="42.72322" lon="1.98214">
        <ele>2032.36</ele>
        <time>2017-02-10T10:03:57Z</time>
      </trkpt>
      <trkpt lat="42.72316" lon="1.98213">
        <ele>2034.77</ele>
        <time>2017-02-10T10:04:18Z</time>
      </trkpt>
      <trkpt lat="42.72307" lon="1.98219">
        <ele>2037.65</ele>
        <time>2017-02-10T10:04:39Z</time>
      </trkpt>
      <trkpt lat="42.72297" lon="1.98216">
        <ele>2038.61</ele>
        <time>2017-02-10T10:05:13Z</time>
      </trkpt>
      <trkpt lat="42.72288" lon="1.98215">
        <ele>2039.09</ele>
        <time>2017-02-10T10:05:29Z</time>
      </trkpt>
      <trkpt lat="42.72282" lon="1.98212">
        <ele>2039.57</ele>
        <time>2017-02-10T10:05:53Z</time>
      </trkpt>
      <trkpt lat="42.72282" lon="1.98201">
        <ele>2041.5</ele>
        <time>2017-02-10T10:06:11Z</time>
      </trkpt>
      <trkpt lat="42.72281" lon="1.9819">
        <ele>2042.46</ele>
        <time>2017-02-10T10:06:29Z</time>
      </trkpt>
      <trkpt lat="42.72279" lon="1.98178">
        <ele>2045.34</ele>
        <time>2017-02-10T10:06:52Z</time>
      </trkpt>
      <trkpt lat="42.72276" lon="1.98165">
        <ele>2048.71</ele>
        <time>2017-02-10T10:07:31Z</time>
      </trkpt>
      <trkpt lat="42.72274" lon="1.98153">
        <ele>2052.07</ele>
        <time>2017-02-10T10:08:17Z</time>
      </trkpt>
      <trkpt lat="42.72272" lon="1.98143">
        <ele>2053.99</ele>
        <time>2017-02-10T10:08:53Z</time>
      </trkpt>
      <trkpt lat="42.7227" lon="1.98129">
        <ele>2057.36</ele>
        <time>2017-02-10T10:09:21Z</time>
      </trkpt>
      <trkpt lat="42.72269" lon="1.98115">
        <ele>2060.72</ele>
        <time>2017-02-10T10:09:50Z</time>
      </trkpt>
      <trkpt lat="42.72269" lon="1.98105">
        <ele>2063.61</ele>
        <time>2017-02-10T10:10:14Z</time>
      </trkpt>
      <trkpt lat="42.72266" lon="1.98092">
        <ele>2065.05</ele>
        <time>2017-02-10T10:10:35Z</time>
      </trkpt>
      <trkpt lat="42.72262" lon="1.98081">
        <ele>2067.93</ele>
        <time>2017-02-10T10:10:58Z</time>
      </trkpt>
      <trkpt lat="42.7226" lon="1.9807">
        <ele>2071.78</ele>
        <time>2017-02-10T10:11:30Z</time>
      </trkpt>
      <trkpt lat="42.72261" lon="1.98056">
        <ele>2074.18</ele>
        <time>2017-02-10T10:11:55Z</time>
      </trkpt>
      <trkpt lat="42.72263" lon="1.98043">
        <ele>2076.1</ele>
        <time>2017-02-10T10:12:18Z</time>
      </trkpt>
      <trkpt lat="42.72263" lon="1.9803">
        <ele>2078.51</ele>
        <time>2017-02-10T10:12:44Z</time>
      </trkpt>
      <trkpt lat="42.72259" lon="1.98018">
        <ele>2079.95</ele>
        <time>2017-02-10T10:13:03Z</time>
      </trkpt>
      <trkpt lat="42.72256" lon="1.98009">
        <ele>2080.43</ele>
        <time>2017-02-10T10:13:21Z</time>
      </trkpt>
      <trkpt lat="42.72252" lon="1.97996">
        <ele>2082.35</ele>
        <time>2017-02-10T10:13:40Z</time>
      </trkpt>
      <trkpt lat="42.72248" lon="1.97982">
        <ele>2085.72</ele>
        <time>2017-02-10T10:14:05Z</time>
      </trkpt>
      <trkpt lat="42.72245" lon="1.9797">
        <ele>2087.16</ele>
        <time>2017-02-10T10:14:31Z</time>
      </trkpt>
      <trkpt lat="42.72245" lon="1.97958">
        <ele>2090.52</ele>
        <time>2017-02-10T10:15:02Z</time>
      </trkpt>
      <trkpt lat="42.72243" lon="1.97945">
        <ele>2094.37</ele>
        <time>2017-02-10T10:15:30Z</time>
      </trkpt>
      <trkpt lat="42.7224" lon="1.97929">
        <ele>2098.21</ele>
        <time>2017-02-10T10:15:59Z</time>
      </trkpt>
      <trkpt lat="42.72235" lon="1.97922">
        <ele>2098.7</ele>
        <time>2017-02-10T10:16:21Z</time>
      </trkpt>
      <trkpt lat="42.72227" lon="1.97913">
        <ele>2102.06</ele>
        <time>2017-02-10T10:16:46Z</time>
      </trkpt>
      <trkpt lat="42.72221" lon="1.97904">
        <ele>2104.94</ele>
        <time>2017-02-10T10:17:10Z</time>
      </trkpt>
      <trkpt lat="42.72216" lon="1.97894">
        <ele>2106.87</ele>
        <time>2017-02-10T10:17:31Z</time>
      </trkpt>
      <trkpt lat="42.72212" lon="1.97885">
        <ele>2108.31</ele>
        <time>2017-02-10T10:17:53Z</time>
      </trkpt>
      <trkpt lat="42.72209" lon="1.97872">
        <ele>2111.67</ele>
        <time>2017-02-10T10:18:17Z</time>
      </trkpt>
      <trkpt lat="42.72206" lon="1.97859">
        <ele>2114.56</ele>
        <time>2017-02-10T10:18:37Z</time>
      </trkpt>
      <trkpt lat="42.72199" lon="1.97852">
        <ele>2115.04</ele>
        <time>2017-02-10T10:18:54Z</time>
      </trkpt>
      <trkpt lat="42.72191" lon="1.97849">
        <ele>2117.44</ele>
        <time>2017-02-10T10:19:13Z</time>
      </trkpt>
      <trkpt lat="42.72183" lon="1.97846">
        <ele>2118.88</ele>
        <time>2017-02-10T10:19:31Z</time>
      </trkpt>
      <trkpt lat="42.72172" lon="1.97844">
        <ele>2121.29</ele>
        <time>2017-02-10T10:19:55Z</time>
      </trkpt>
      <trkpt lat="42.72162" lon="1.97839">
        <ele>2125.13</ele>
        <time>2017-02-10T10:20:28Z</time>
      </trkpt>
      <trkpt lat="42.72154" lon="1.97829">
        <ele>2129.46</ele>
        <time>2017-02-10T10:20:54Z</time>
      </trkpt>
      <trkpt lat="42.72147" lon="1.97824">
        <ele>2132.82</ele>
        <time>2017-02-10T10:21:27Z</time>
      </trkpt>
      <trkpt lat="42.72138" lon="1.97815">
        <ele>2136.19</ele>
        <time>2017-02-10T10:21:52Z</time>
      </trkpt>
      <trkpt lat="42.72133" lon="1.97807">
        <ele>2137.63</ele>
        <time>2017-02-10T10:22:13Z</time>
      </trkpt>
      <trkpt lat="42.72126" lon="1.97803">
        <ele>2140.03</ele>
        <time>2017-02-10T10:22:35Z</time>
      </trkpt>
      <trkpt lat="42.7212" lon="1.97792">
        <ele>2143.4</ele>
        <time>2017-02-10T10:22:58Z</time>
      </trkpt>
      <trkpt lat="42.72113" lon="1.97786">
        <ele>2146.76</ele>
        <time>2017-02-10T10:23:33Z</time>
      </trkpt>
      <trkpt lat="42.72107" lon="1.97779">
        <ele>2150.61</ele>
        <time>2017-02-10T10:24:00Z</time>
      </trkpt>
      <trkpt lat="42.72102" lon="1.97773">
        <ele>2152.53</ele>
        <time>2017-02-10T10:24:25Z</time>
      </trkpt>
      <trkpt lat="42.72097" lon="1.97763">
        <ele>2155.41</ele>
        <time>2017-02-10T10:24:48Z</time>
      </trkpt>
      <trkpt lat="42.72092" lon="1.97753">
        <ele>2158.3</ele>
        <time>2017-02-10T10:25:07Z</time>
      </trkpt>
      <trkpt lat="42.72087" lon="1.97746">
        <ele>2160.7</ele>
        <time>2017-02-10T10:25:26Z</time>
      </trkpt>
      <trkpt lat="42.72087" lon="1.97736">
        <ele>2162.62</ele>
        <time>2017-02-10T10:25:47Z</time>
      </trkpt>
      <trkpt lat="42.72084" lon="1.97725">
        <ele>2165.99</ele>
        <time>2017-02-10T10:26:08Z</time>
      </trkpt>
      <trkpt lat="42.72074" lon="1.97723">
        <ele>2167.91</ele>
        <time>2017-02-10T10:26:28Z</time>
      </trkpt>
      <trkpt lat="42.72065" lon="1.9772">
        <ele>2168.39</ele>
        <time>2017-02-10T10:26:44Z</time>
      </trkpt>
      <trkpt lat="42.72057" lon="1.97722">
        <ele>2169.35</ele>
        <time>2017-02-10T10:26:58Z</time>
      </trkpt>
      <trkpt lat="42.72049" lon="1.97716">
        <ele>2170.31</ele>
        <time>2017-02-10T10:27:12Z</time>
      </trkpt>
      <trkpt lat="42.72042" lon="1.97711">
        <ele>2171.76</ele>
        <time>2017-02-10T10:27:27Z</time>
      </trkpt>
      <trkpt lat="42.72034" lon="1.97706">
        <ele>2173.68</ele>
        <time>2017-02-10T10:27:44Z</time>
      </trkpt>
      <trkpt lat="42.72028" lon="1.97698">
        <ele>2176.08</ele>
        <time>2017-02-10T10:28:02Z</time>
      </trkpt>
      <trkpt lat="42.72019" lon="1.97696">
        <ele>2178.48</ele>
        <time>2017-02-10T10:28:28Z</time>
      </trkpt>
      <trkpt lat="42.72011" lon="1.97696">
        <ele>2181.37</ele>
        <time>2017-02-10T10:28:48Z</time>
      </trkpt>
      <trkpt lat="42.72007" lon="1.97686">
        <ele>2182.81</ele>
        <time>2017-02-10T10:29:07Z</time>
      </trkpt>
      <trkpt lat="42.72001" lon="1.97675">
        <ele>2187.14</ele>
        <time>2017-02-10T10:29:40Z</time>
      </trkpt>
      <trkpt lat="42.71996" lon="1.97671">
        <ele>2187.14</ele>
        <time>2017-02-10T10:33:16Z</time>
      </trkpt>
      <trkpt lat="42.71987" lon="1.97667">
        <ele>2186.18</ele>
        <time>2017-02-10T10:33:27Z</time>
      </trkpt>
      <trkpt lat="42.71981" lon="1.97657">
        <ele>2186.18</ele>
        <time>2017-02-10T10:33:38Z</time>
      </trkpt>
      <trkpt lat="42.71974" lon="1.97647">
        <ele>2186.66</ele>
        <time>2017-02-10T10:33:50Z</time>
      </trkpt>
      <trkpt lat="42.7197" lon="1.97637">
        <ele>2187.62</ele>
        <time>2017-02-10T10:34:02Z</time>
      </trkpt>
      <trkpt lat="42.71965" lon="1.97627">
        <ele>2188.1</ele>
        <time>2017-02-10T10:34:15Z</time>
      </trkpt>
      <trkpt lat="42.71959" lon="1.97616">
        <ele>2188.1</ele>
        <time>2017-02-10T10:34:26Z</time>
      </trkpt>
      <trkpt lat="42.71956" lon="1.97604">
        <ele>2188.58</ele>
        <time>2017-02-10T10:34:37Z</time>
      </trkpt>
      <trkpt lat="42.71954" lon="1.97593">
        <ele>2189.54</ele>
        <time>2017-02-10T10:34:51Z</time>
      </trkpt>
      <trkpt lat="42.71946" lon="1.97583">
        <ele>2191.94</ele>
        <time>2017-02-10T10:35:14Z</time>
      </trkpt>
      <trkpt lat="42.7194" lon="1.97573">
        <ele>2191.94</ele>
        <time>2017-02-10T10:35:29Z</time>
      </trkpt>
      <trkpt lat="42.71932" lon="1.97568">
        <ele>2189.06</ele>
        <time>2017-02-10T10:35:44Z</time>
      </trkpt>
      <trkpt lat="42.71924" lon="1.97561">
        <ele>2186.18</ele>
        <time>2017-02-10T10:35:58Z</time>
      </trkpt>
      <trkpt lat="42.71917" lon="1.97552">
        <ele>2183.77</ele>
        <time>2017-02-10T10:36:21Z</time>
      </trkpt>
      <trkpt lat="42.71911" lon="1.97543">
        <ele>2182.33</ele>
        <time>2017-02-10T10:36:31Z</time>
      </trkpt>
      <trkpt lat="42.71903" lon="1.97535">
        <ele>2183.29</ele>
        <time>2017-02-10T10:36:42Z</time>
      </trkpt>
      <trkpt lat="42.71899" lon="1.97524">
        <ele>2183.77</ele>
        <time>2017-02-10T10:36:53Z</time>
      </trkpt>
      <trkpt lat="42.71893" lon="1.97515">
        <ele>2186.18</ele>
        <time>2017-02-10T10:37:07Z</time>
      </trkpt>
      <trkpt lat="42.71887" lon="1.97508">
        <ele>2186.66</ele>
        <time>2017-02-10T10:37:25Z</time>
      </trkpt>
      <trkpt lat="42.71884" lon="1.97496">
        <ele>2188.58</ele>
        <time>2017-02-10T10:37:41Z</time>
      </trkpt>
      <trkpt lat="42.7188" lon="1.97485">
        <ele>2190.02</ele>
        <time>2017-02-10T10:37:57Z</time>
      </trkpt>
      <trkpt lat="42.71877" lon="1.97473">
        <ele>2192.42</ele>
        <time>2017-02-10T10:38:15Z</time>
      </trkpt>
      <trkpt lat="42.71874" lon="1.97465">
        <ele>2194.35</ele>
        <time>2017-02-10T10:38:31Z</time>
      </trkpt>
      <trkpt lat="42.7187" lon="1.97458">
        <ele>2198.19</ele>
        <time>2017-02-10T10:38:50Z</time>
      </trkpt>
      <trkpt lat="42.71868" lon="1.97448">
        <ele>2200.11</ele>
        <time>2017-02-10T10:39:07Z</time>
      </trkpt>
      <trkpt lat="42.71858" lon="1.97441">
        <ele>2202.04</ele>
        <time>2017-02-10T10:39:23Z</time>
      </trkpt>
      <trkpt lat="42.71861" lon="1.97432">
        <ele>2203.48</ele>
        <time>2017-02-10T10:39:40Z</time>
      </trkpt>
      <trkpt lat="42.71859" lon="1.9742">
        <ele>2206.84</ele>
        <time>2017-02-10T10:39:57Z</time>
      </trkpt>
      <trkpt lat="42.71853" lon="1.97411">
        <ele>2208.29</ele>
        <time>2017-02-10T10:40:13Z</time>
      </trkpt>
      <trkpt lat="42.71846" lon="1.97405">
        <ele>2208.77</ele>
        <time>2017-02-10T10:40:29Z</time>
      </trkpt>
      <trkpt lat="42.71845" lon="1.97395">
        <ele>2212.13</ele>
        <time>2017-02-10T10:40:51Z</time>
      </trkpt>
      <trkpt lat="42.71844" lon="1.97383">
        <ele>2214.53</ele>
        <time>2017-02-10T10:41:10Z</time>
      </trkpt>
      <trkpt lat="42.71836" lon="1.97381">
        <ele>2216.94</ele>
        <time>2017-02-10T10:41:33Z</time>
      </trkpt>
      <trkpt lat="42.71829" lon="1.97371">
        <ele>2220.3</ele>
        <time>2017-02-10T10:43:28Z</time>
      </trkpt>
      <trkpt lat="42.71825" lon="1.97366">
        <ele>2223.19</ele>
        <time>2017-02-10T10:43:48Z</time>
      </trkpt>
      <trkpt lat="42.71818" lon="1.97356">
        <ele>2226.07</ele>
        <time>2017-02-10T10:44:09Z</time>
      </trkpt>
      <trkpt lat="42.71813" lon="1.97348">
        <ele>2228.95</ele>
        <time>2017-02-10T10:44:30Z</time>
      </trkpt>
      <trkpt lat="42.71814" lon="1.97337">
        <ele>2232.8</ele>
        <time>2017-02-10T10:44:51Z</time>
      </trkpt>
      <trkpt lat="42.71809" lon="1.97327">
        <ele>2235.2</ele>
        <time>2017-02-10T10:45:10Z</time>
      </trkpt>
      <trkpt lat="42.71801" lon="1.9732">
        <ele>2236.64</ele>
        <time>2017-02-10T10:45:27Z</time>
      </trkpt>
      <trkpt lat="42.71794" lon="1.97314">
        <ele>2238.09</ele>
        <time>2017-02-10T10:45:47Z</time>
      </trkpt>
      <trkpt lat="42.71788" lon="1.97305">
        <ele>2240.97</ele>
        <time>2017-02-10T10:46:07Z</time>
      </trkpt>
      <trkpt lat="42.71783" lon="1.97293">
        <ele>2242.41</ele>
        <time>2017-02-10T10:46:33Z</time>
      </trkpt>
      <trkpt lat="42.71776" lon="1.97283">
        <ele>2243.85</ele>
        <time>2017-02-10T10:46:48Z</time>
      </trkpt>
      <trkpt lat="42.7177" lon="1.97273">
        <ele>2245.78</ele>
        <time>2017-02-10T10:47:07Z</time>
      </trkpt>
      <trkpt lat="42.71765" lon="1.97263">
        <ele>2247.7</ele>
        <time>2017-02-10T10:47:26Z</time>
      </trkpt>
      <trkpt lat="42.71758" lon="1.97253">
        <ele>2249.62</ele>
        <time>2017-02-10T10:47:45Z</time>
      </trkpt>
      <trkpt lat="42.71751" lon="1.97245">
        <ele>2251.54</ele>
        <time>2017-02-10T10:48:05Z</time>
      </trkpt>
      <trkpt lat="42.71743" lon="1.97236">
        <ele>2253.95</ele>
        <time>2017-02-10T10:48:30Z</time>
      </trkpt>
      <trkpt lat="42.71739" lon="1.97226">
        <ele>2256.83</ele>
        <time>2017-02-10T10:48:59Z</time>
      </trkpt>
      <trkpt lat="42.71736" lon="1.97214">
        <ele>2259.72</ele>
        <time>2017-02-10T10:49:27Z</time>
      </trkpt>
      <trkpt lat="42.71732" lon="1.97204">
        <ele>2263.08</ele>
        <time>2017-02-10T10:49:57Z</time>
      </trkpt>
      <trkpt lat="42.71724" lon="1.97198">
        <ele>2267.89</ele>
        <time>2017-02-10T10:50:33Z</time>
      </trkpt>
      <trkpt lat="42.7172" lon="1.97189">
        <ele>2270.29</ele>
        <time>2017-02-10T10:51:00Z</time>
      </trkpt>
      <trkpt lat="42.7171" lon="1.97183">
        <ele>2272.69</ele>
        <time>2017-02-10T10:51:28Z</time>
      </trkpt>
      <trkpt lat="42.71702" lon="1.97177">
        <ele>2274.14</ele>
        <time>2017-02-10T10:51:48Z</time>
      </trkpt>
      <trkpt lat="42.71695" lon="1.9717">
        <ele>2275.1</ele>
        <time>2017-02-10T10:52:04Z</time>
      </trkpt>
      <trkpt lat="42.71687" lon="1.97164">
        <ele>2276.54</ele>
        <time>2017-02-10T10:52:20Z</time>
      </trkpt>
      <trkpt lat="42.71679" lon="1.97158">
        <ele>2278.94</ele>
        <time>2017-02-10T10:52:44Z</time>
      </trkpt>
      <trkpt lat="42.71673" lon="1.9715">
        <ele>2281.83</ele>
        <time>2017-02-10T10:53:11Z</time>
      </trkpt>
      <trkpt lat="42.71666" lon="1.97142">
        <ele>2284.71</ele>
        <time>2017-02-10T10:53:38Z</time>
      </trkpt>
      <trkpt lat="42.71658" lon="1.97138">
        <ele>2286.15</ele>
        <time>2017-02-10T10:53:57Z</time>
      </trkpt>
      <trkpt lat="42.71649" lon="1.97135">
        <ele>2285.67</ele>
        <time>2017-02-10T10:54:13Z</time>
      </trkpt>
      <trkpt lat="42.71641" lon="1.97132">
        <ele>2286.15</ele>
        <time>2017-02-10T10:54:29Z</time>
      </trkpt>
      <trkpt lat="42.71633" lon="1.97128">
        <ele>2288.08</ele>
        <time>2017-02-10T10:54:47Z</time>
      </trkpt>
      <trkpt lat="42.71625" lon="1.97123">
        <ele>2289.52</ele>
        <time>2017-02-10T10:55:05Z</time>
      </trkpt>
      <trkpt lat="42.71616" lon="1.97119">
        <ele>2290</ele>
        <time>2017-02-10T10:55:21Z</time>
      </trkpt>
      <trkpt lat="42.71608" lon="1.97112">
        <ele>2290.48</ele>
        <time>2017-02-10T10:55:36Z</time>
      </trkpt>
      <trkpt lat="42.71602" lon="1.97103">
        <ele>2291.92</ele>
        <time>2017-02-10T10:55:51Z</time>
      </trkpt>
      <trkpt lat="42.71595" lon="1.97098">
        <ele>2292.4</ele>
        <time>2017-02-10T10:56:07Z</time>
      </trkpt>
      <trkpt lat="42.71586" lon="1.97097">
        <ele>2294.8</ele>
        <time>2017-02-10T10:56:25Z</time>
      </trkpt>
      <trkpt lat="42.71578" lon="1.97094">
        <ele>2296.25</ele>
        <time>2017-02-10T10:57:02Z</time>
      </trkpt>
      <trkpt lat="42.71569" lon="1.9709">
        <ele>2299.61</ele>
        <time>2017-02-10T10:57:22Z</time>
      </trkpt>
      <trkpt lat="42.7156" lon="1.97086">
        <ele>2301.53</ele>
        <time>2017-02-10T10:57:43Z</time>
      </trkpt>
      <trkpt lat="42.7155" lon="1.97085">
        <ele>2303.94</ele>
        <time>2017-02-10T10:58:09Z</time>
      </trkpt>
      <trkpt lat="42.7154" lon="1.97082">
        <ele>2307.78</ele>
        <time>2017-02-10T10:58:38Z</time>
      </trkpt>
      <trkpt lat="42.71535" lon="1.97073">
        <ele>2311.63</ele>
        <time>2017-02-10T10:59:07Z</time>
      </trkpt>
      <trkpt lat="42.71528" lon="1.97066">
        <ele>2313.55</ele>
        <time>2017-02-10T10:59:31Z</time>
      </trkpt>
      <trkpt lat="42.71519" lon="1.97061">
        <ele>2316.91</ele>
        <time>2017-02-10T11:00:00Z</time>
      </trkpt>
      <trkpt lat="42.71513" lon="1.97058">
        <ele>2318.84</ele>
        <time>2017-02-10T11:00:26Z</time>
      </trkpt>
      <trkpt lat="42.71508" lon="1.97056">
        <ele>2321.72</ele>
        <time>2017-02-10T11:00:52Z</time>
      </trkpt>
      <trkpt lat="42.71499" lon="1.97053">
        <ele>2325.57</ele>
        <time>2017-02-10T11:01:26Z</time>
      </trkpt>
      <trkpt lat="42.71492" lon="1.97052">
        <ele>2329.89</ele>
        <time>2017-02-10T11:02:03Z</time>
      </trkpt>
      <trkpt lat="42.71484" lon="1.97053">
        <ele>2332.78</ele>
        <time>2017-02-10T11:02:30Z</time>
      </trkpt>
      <trkpt lat="42.71478" lon="1.97054">
        <ele>2337.1</ele>
        <time>2017-02-10T11:03:15Z</time>
      </trkpt>
      <trkpt lat="42.71463" lon="1.97064">
        <ele>2341.43</ele>
        <time>2017-02-10T11:04:13Z</time>
      </trkpt>
      <trkpt lat="42.71453" lon="1.9706">
        <ele>2345.75</ele>
        <time>2017-02-10T11:04:41Z</time>
      </trkpt>
      <trkpt lat="42.71444" lon="1.97055">
        <ele>2347.68</ele>
        <time>2017-02-10T11:05:06Z</time>
      </trkpt>
      <trkpt lat="42.71436" lon="1.97061">
        <ele>2351.52</ele>
        <time>2017-02-10T11:05:33Z</time>
      </trkpt>
      <trkpt lat="42.71429" lon="1.97064">
        <ele>2353.93</ele>
        <time>2017-02-10T11:06:12Z</time>
      </trkpt>
      <trkpt lat="42.71425" lon="1.97072">
        <ele>2357.77</ele>
        <time>2017-02-10T11:06:46Z</time>
      </trkpt>
      <trkpt lat="42.71415" lon="1.97071">
        <ele>2361.62</ele>
        <time>2017-02-10T11:07:20Z</time>
      </trkpt>
      <trkpt lat="42.71407" lon="1.97072">
        <ele>2365.94</ele>
        <time>2017-02-10T11:07:48Z</time>
      </trkpt>
      <trkpt lat="42.71397" lon="1.97073">
        <ele>2367.38</ele>
        <time>2017-02-10T11:08:09Z</time>
      </trkpt>
      <trkpt lat="42.71388" lon="1.97077">
        <ele>2369.31</ele>
        <time>2017-02-10T11:08:29Z</time>
      </trkpt>
      <trkpt lat="42.71387" lon="1.97077">
        <ele>2369.79</ele>
        <time>2017-02-10T11:09:47Z</time>
      </trkpt>
      <trkpt lat="42.71383" lon="1.97078">
        <ele>2370.27</ele>
        <time>2017-02-10T11:11:04Z</time>
      </trkpt>
      <trkpt lat="42.7138" lon="1.9709">
        <ele>2368.83</ele>
        <time>2017-02-10T11:11:36Z</time>
      </trkpt>
      <trkpt lat="42.71384" lon="1.97091">
        <ele>2368.83</ele>
        <time>2017-02-10T11:13:10Z</time>
      </trkpt>
      <trkpt lat="42.71386" lon="1.97083">
        <ele>2369.31</ele>
        <time>2017-02-10T11:15:20Z</time>
      </trkpt>
      <trkpt lat="42.71392" lon="1.97078">
        <ele>2368.83</ele>
        <time>2017-02-10T11:15:49Z</time>
      </trkpt>
      <trkpt lat="42.71387" lon="1.97075">
        <ele>2368.83</ele>
        <time>2017-02-10T11:20:18Z</time>
      </trkpt>
      <trkpt lat="42.7138" lon="1.97082">
        <ele>2367.86</ele>
        <time>2017-02-10T11:21:16Z</time>
      </trkpt>
      <trkpt lat="42.71374" lon="1.9709">
        <ele>2367.86</ele>
        <time>2017-02-10T11:21:27Z</time>
      </trkpt>
      <trkpt lat="42.71371" lon="1.97102">
        <ele>2365.46</ele>
        <time>2017-02-10T11:21:40Z</time>
      </trkpt>
      <trkpt lat="42.71372" lon="1.97113">
        <ele>2361.14</ele>
        <time>2017-02-10T11:23:03Z</time>
      </trkpt>
      <trkpt lat="42.71372" lon="1.9711">
        <ele>2361.62</ele>
        <time>2017-02-10T11:24:30Z</time>
      </trkpt>
      <trkpt lat="42.71364" lon="1.97107">
        <ele>2364.02</ele>
        <time>2017-02-10T11:24:46Z</time>
      </trkpt>
      <trkpt lat="42.71356" lon="1.97113">
        <ele>2363.54</ele>
        <time>2017-02-10T11:24:58Z</time>
      </trkpt>
      <trkpt lat="42.71347" lon="1.97115">
        <ele>2363.54</ele>
        <time>2017-02-10T11:25:11Z</time>
      </trkpt>
      <trkpt lat="42.71338" lon="1.97115">
        <ele>2361.14</ele>
        <time>2017-02-10T11:25:24Z</time>
      </trkpt>
      <trkpt lat="42.7133" lon="1.97112">
        <ele>2357.29</ele>
        <time>2017-02-10T11:25:41Z</time>
      </trkpt>
      <trkpt lat="42.71321" lon="1.97113">
        <ele>2354.89</ele>
        <time>2017-02-10T11:26:01Z</time>
      </trkpt>
      <trkpt lat="42.71313" lon="1.97106">
        <ele>2354.41</ele>
        <time>2017-02-10T11:26:31Z</time>
      </trkpt>
      <trkpt lat="42.71316" lon="1.97106">
        <ele>2354.89</ele>
        <time>2017-02-10T11:27:00Z</time>
      </trkpt>
      <trkpt lat="42.71324" lon="1.9711">
        <ele>2358.25</ele>
        <time>2017-02-10T11:27:16Z</time>
      </trkpt>
      <trkpt lat="42.71333" lon="1.9711">
        <ele>2361.14</ele>
        <time>2017-02-10T11:28:08Z</time>
      </trkpt>
      <trkpt lat="42.71343" lon="1.97108">
        <ele>2364.98</ele>
        <time>2017-02-10T11:28:21Z</time>
      </trkpt>
      <trkpt lat="42.71352" lon="1.97103">
        <ele>2366.9</ele>
        <time>2017-02-10T11:28:33Z</time>
      </trkpt>
      <trkpt lat="42.71362" lon="1.97097">
        <ele>2366.9</ele>
        <time>2017-02-10T11:28:45Z</time>
      </trkpt>
      <trkpt lat="42.71368" lon="1.97092">
        <ele>2366.9</ele>
        <time>2017-02-10T11:29:10Z</time>
      </trkpt>
      <trkpt lat="42.71377" lon="1.97086">
        <ele>2368.83</ele>
        <time>2017-02-10T11:29:22Z</time>
      </trkpt>
      <trkpt lat="42.71385" lon="1.97081">
        <ele>2369.31</ele>
        <time>2017-02-10T11:29:46Z</time>
      </trkpt>
      <trkpt lat="42.71392" lon="1.97082">
        <ele>2367.86</ele>
        <time>2017-02-10T11:30:33Z</time>
      </trkpt>
      <trkpt lat="42.71401" lon="1.97082">
        <ele>2367.38</ele>
        <time>2017-02-10T11:30:43Z</time>
      </trkpt>
      <trkpt lat="42.71409" lon="1.97074">
        <ele>2364.5</ele>
        <time>2017-02-10T11:30:56Z</time>
      </trkpt>
      <trkpt lat="42.71419" lon="1.97074">
        <ele>2361.14</ele>
        <time>2017-02-10T11:31:12Z</time>
      </trkpt>
      <trkpt lat="42.71426" lon="1.97074">
        <ele>2357.77</ele>
        <time>2017-02-10T11:31:29Z</time>
      </trkpt>
      <trkpt lat="42.71432" lon="1.97065">
        <ele>2354.41</ele>
        <time>2017-02-10T11:31:45Z</time>
      </trkpt>
      <trkpt lat="42.7144" lon="1.97056">
        <ele>2351.52</ele>
        <time>2017-02-10T11:31:59Z</time>
      </trkpt>
      <trkpt lat="42.71449" lon="1.97055">
        <ele>2348.16</ele>
        <time>2017-02-10T11:32:11Z</time>
      </trkpt>
      <trkpt lat="42.71457" lon="1.9706">
        <ele>2345.27</ele>
        <time>2017-02-10T11:32:22Z</time>
      </trkpt>
      <trkpt lat="42.71464" lon="1.97066">
        <ele>2340.47</ele>
        <time>2017-02-10T11:32:35Z</time>
      </trkpt>
      <trkpt lat="42.71473" lon="1.97064">
        <ele>2337.1</ele>
        <time>2017-02-10T11:32:51Z</time>
      </trkpt>
      <trkpt lat="42.71481" lon="1.97058">
        <ele>2333.26</ele>
        <time>2017-02-10T11:33:19Z</time>
      </trkpt>
      <trkpt lat="42.71489" lon="1.97053">
        <ele>2328.93</ele>
        <time>2017-02-10T11:33:44Z</time>
      </trkpt>
      <trkpt lat="42.71497" lon="1.97045">
        <ele>2324.12</ele>
        <time>2017-02-10T11:34:02Z</time>
      </trkpt>
      <trkpt lat="42.71505" lon="1.97044">
        <ele>2320.76</ele>
        <time>2017-02-10T11:34:17Z</time>
      </trkpt>
      <trkpt lat="42.71516" lon="1.9704">
        <ele>2319.32</ele>
        <time>2017-02-10T11:35:02Z</time>
      </trkpt>
      <trkpt lat="42.71524" lon="1.97042">
        <ele>2315.95</ele>
        <time>2017-02-10T11:35:18Z</time>
      </trkpt>
      <trkpt lat="42.71532" lon="1.97048">
        <ele>2313.07</ele>
        <time>2017-02-10T11:35:33Z</time>
      </trkpt>
      <trkpt lat="42.71541" lon="1.97047">
        <ele>2311.15</ele>
        <time>2017-02-10T11:35:46Z</time>
      </trkpt>
      <trkpt lat="42.71549" lon="1.97054">
        <ele>2307.78</ele>
        <time>2017-02-10T11:36:00Z</time>
      </trkpt>
      <trkpt lat="42.71554" lon="1.97063">
        <ele>2305.86</ele>
        <time>2017-02-10T11:36:14Z</time>
      </trkpt>
      <trkpt lat="42.71562" lon="1.9707">
        <ele>2302.98</ele>
        <time>2017-02-10T11:36:30Z</time>
      </trkpt>
      <trkpt lat="42.71567" lon="1.9708">
        <ele>2299.61</ele>
        <time>2017-02-10T11:36:46Z</time>
      </trkpt>
      <trkpt lat="42.71571" lon="1.97089">
        <ele>2296.73</ele>
        <time>2017-02-10T11:37:05Z</time>
      </trkpt>
      <trkpt lat="42.71579" lon="1.97096">
        <ele>2293.84</ele>
        <time>2017-02-10T11:37:25Z</time>
      </trkpt>
      <trkpt lat="42.71587" lon="1.971">
        <ele>2291.44</ele>
        <time>2017-02-10T11:37:39Z</time>
      </trkpt>
      <trkpt lat="42.71596" lon="1.97106">
        <ele>2289.04</ele>
        <time>2017-02-10T11:37:51Z</time>
      </trkpt>
      <trkpt lat="42.71602" lon="1.97114">
        <ele>2289.04</ele>
        <time>2017-02-10T11:38:03Z</time>
      </trkpt>
      <trkpt lat="42.71612" lon="1.97118">
        <ele>2288.08</ele>
        <time>2017-02-10T11:38:16Z</time>
      </trkpt>
      <trkpt lat="42.71622" lon="1.97121">
        <ele>2287.59</ele>
        <time>2017-02-10T11:38:28Z</time>
      </trkpt>
      <trkpt lat="42.71632" lon="1.97126">
        <ele>2286.63</ele>
        <time>2017-02-10T11:38:39Z</time>
      </trkpt>
      <trkpt lat="42.7164" lon="1.97131">
        <ele>2285.19</ele>
        <time>2017-02-10T11:38:51Z</time>
      </trkpt>
      <trkpt lat="42.71649" lon="1.97134">
        <ele>2284.23</ele>
        <time>2017-02-10T11:39:02Z</time>
      </trkpt>
      <trkpt lat="42.71656" lon="1.97139">
        <ele>2283.27</ele>
        <time>2017-02-10T11:39:13Z</time>
      </trkpt>
      <trkpt lat="42.71665" lon="1.97145">
        <ele>2283.75</ele>
        <time>2017-02-10T11:39:25Z</time>
      </trkpt>
      <trkpt lat="42.71672" lon="1.97149">
        <ele>2280.87</ele>
        <time>2017-02-10T11:40:26Z</time>
      </trkpt>
      <trkpt lat="42.71691" lon="1.97162">
        <ele>2277.5</ele>
        <time>2017-02-10T11:40:40Z</time>
      </trkpt>
      <trkpt lat="42.71736" lon="1.97207">
        <ele>2274.62</ele>
        <time>2017-02-10T11:40:54Z</time>
      </trkpt>
      <trkpt lat="42.71834" lon="1.9784">
        <ele>2085.24</ele>
        <time>2017-02-10T12:50:18Z</time>
      </trkpt>
      <trkpt lat="42.71837" lon="1.97854">
        <ele>2082.35</ele>
        <time>2017-02-10T12:50:30Z</time>
      </trkpt>
      <trkpt lat="42.71839" lon="1.97869">
        <ele>2079.47</ele>
        <time>2017-02-10T12:50:45Z</time>
      </trkpt>
      <trkpt lat="42.71844" lon="1.97887">
        <ele>2077.55</ele>
        <time>2017-02-10T12:50:58Z</time>
      </trkpt>
      <trkpt lat="42.71848" lon="1.97903">
        <ele>2075.14</ele>
        <time>2017-02-10T12:51:10Z</time>
      </trkpt>
      <trkpt lat="42.71852" lon="1.97917">
        <ele>2073.7</ele>
        <time>2017-02-10T12:51:21Z</time>
      </trkpt>
      <trkpt lat="42.71855" lon="1.97932">
        <ele>2072.26</ele>
        <time>2017-02-10T12:51:34Z</time>
      </trkpt>
      <trkpt lat="42.71856" lon="1.97947">
        <ele>2069.86</ele>
        <time>2017-02-10T12:51:48Z</time>
      </trkpt>
      <trkpt lat="42.7185" lon="1.97957">
        <ele>2065.53</ele>
        <time>2017-02-10T12:52:01Z</time>
      </trkpt>
      <trkpt lat="42.71843" lon="1.97967">
        <ele>2063.61</ele>
        <time>2017-02-10T12:52:13Z</time>
      </trkpt>
      <trkpt lat="42.71837" lon="1.9798">
        <ele>2059.28</ele>
        <time>2017-02-10T12:52:26Z</time>
      </trkpt>
      <trkpt lat="42.71834" lon="1.97993">
        <ele>2054.47</ele>
        <time>2017-02-10T12:52:39Z</time>
      </trkpt>
      <trkpt lat="42.71832" lon="1.98006">
        <ele>2046.78</ele>
        <time>2017-02-10T12:52:51Z</time>
      </trkpt>
      <trkpt lat="42.71833" lon="1.98021">
        <ele>2045.82</ele>
        <time>2017-02-10T12:53:00Z</time>
      </trkpt>
      <trkpt lat="42.71836" lon="1.98036">
        <ele>2043.42</ele>
        <time>2017-02-10T12:53:11Z</time>
      </trkpt>
      <trkpt lat="42.71841" lon="1.98049">
        <ele>2039.57</ele>
        <time>2017-02-10T12:53:24Z</time>
      </trkpt>
      <trkpt lat="42.71851" lon="1.98062">
        <ele>2040.05</ele>
        <time>2017-02-10T12:53:39Z</time>
      </trkpt>
      <trkpt lat="42.71855" lon="1.98079">
        <ele>2042.46</ele>
        <time>2017-02-10T12:53:56Z</time>
      </trkpt>
      <trkpt lat="42.71865" lon="1.98086">
        <ele>2041.02</ele>
        <time>2017-02-10T12:54:08Z</time>
      </trkpt>
      <trkpt lat="42.71874" lon="1.98095">
        <ele>2041.02</ele>
        <time>2017-02-10T12:54:22Z</time>
      </trkpt>
      <trkpt lat="42.71884" lon="1.98105">
        <ele>2041.5</ele>
        <time>2017-02-10T12:54:41Z</time>
      </trkpt>
      <trkpt lat="42.71892" lon="1.98113">
        <ele>2041.5</ele>
        <time>2017-02-10T12:54:54Z</time>
      </trkpt>
      <trkpt lat="42.71898" lon="1.98118">
        <ele>2041.5</ele>
        <time>2017-02-10T12:57:28Z</time>
      </trkpt>
      <trkpt lat="42.71907" lon="1.98125">
        <ele>2041.98</ele>
        <time>2017-02-10T12:57:41Z</time>
      </trkpt>
      <trkpt lat="42.71915" lon="1.98135">
        <ele>2041.5</ele>
        <time>2017-02-10T12:57:54Z</time>
      </trkpt>
      <trkpt lat="42.71922" lon="1.98141">
        <ele>2041.5</ele>
        <time>2017-02-10T12:58:08Z</time>
      </trkpt>
      <trkpt lat="42.71931" lon="1.98149">
        <ele>2042.46</ele>
        <time>2017-02-10T12:58:22Z</time>
      </trkpt>
      <trkpt lat="42.71938" lon="1.98154">
        <ele>2041.98</ele>
        <time>2017-02-10T12:58:35Z</time>
      </trkpt>
      <trkpt lat="42.71946" lon="1.98161">
        <ele>2041.5</ele>
        <time>2017-02-10T12:58:48Z</time>
      </trkpt>
      <trkpt lat="42.71954" lon="1.98166">
        <ele>2041.5</ele>
        <time>2017-02-10T12:59:03Z</time>
      </trkpt>
      <trkpt lat="42.71962" lon="1.98171">
        <ele>2041.98</ele>
        <time>2017-02-10T12:59:15Z</time>
      </trkpt>
      <trkpt lat="42.71971" lon="1.98175">
        <ele>2041.5</ele>
        <time>2017-02-10T12:59:27Z</time>
      </trkpt>
      <trkpt lat="42.71979" lon="1.98183">
        <ele>2041.98</ele>
        <time>2017-02-10T12:59:41Z</time>
      </trkpt>
      <trkpt lat="42.71986" lon="1.98192">
        <ele>2041.5</ele>
        <time>2017-02-10T12:59:55Z</time>
      </trkpt>
      <trkpt lat="42.71994" lon="1.98187">
        <ele>2041.98</ele>
        <time>2017-02-10T13:00:17Z</time>
      </trkpt>
      <trkpt lat="42.72005" lon="1.9818">
        <ele>2042.46</ele>
        <time>2017-02-10T13:00:33Z</time>
      </trkpt>
      <trkpt lat="42.72016" lon="1.98175">
        <ele>2042.46</ele>
        <time>2017-02-10T13:00:47Z</time>
      </trkpt>
      <trkpt lat="42.72026" lon="1.98169">
        <ele>2043.42</ele>
        <time>2017-02-10T13:01:03Z</time>
      </trkpt>
      <trkpt lat="42.72034" lon="1.98164">
        <ele>2043.42</ele>
        <time>2017-02-10T13:01:16Z</time>
      </trkpt>
      <trkpt lat="42.72046" lon="1.9816">
        <ele>2044.38</ele>
        <time>2017-02-10T13:01:32Z</time>
      </trkpt>
      <trkpt lat="42.72058" lon="1.98154">
        <ele>2045.34</ele>
        <time>2017-02-10T13:01:49Z</time>
      </trkpt>
      <trkpt lat="42.7207" lon="1.98151">
        <ele>2048.71</ele>
        <time>2017-02-10T13:02:14Z</time>
      </trkpt>
      <trkpt lat="42.72079" lon="1.98146">
        <ele>2052.07</ele>
        <time>2017-02-10T13:03:10Z</time>
      </trkpt>
      <trkpt lat="42.72088" lon="1.98138">
        <ele>2056.4</ele>
        <time>2017-02-10T13:03:50Z</time>
      </trkpt>
      <trkpt lat="42.72101" lon="1.98128">
        <ele>2060.72</ele>
        <time>2017-02-10T13:04:37Z</time>
      </trkpt>
      <trkpt lat="42.72109" lon="1.98121">
        <ele>2062.17</ele>
        <time>2017-02-10T13:05:20Z</time>
      </trkpt>
      <trkpt lat="42.72116" lon="1.98112">
        <ele>2064.09</ele>
        <time>2017-02-10T13:05:45Z</time>
      </trkpt>
      <trkpt lat="42.72124" lon="1.98102">
        <ele>2065.05</ele>
        <time>2017-02-10T13:06:08Z</time>
      </trkpt>
      <trkpt lat="42.72135" lon="1.98094">
        <ele>2066.01</ele>
        <time>2017-02-10T13:06:24Z</time>
      </trkpt>
      <trkpt lat="42.72144" lon="1.98092">
        <ele>2064.09</ele>
        <time>2017-02-10T13:06:39Z</time>
      </trkpt>
      <trkpt lat="42.72152" lon="1.98096">
        <ele>2062.65</ele>
        <time>2017-02-10T13:06:51Z</time>
      </trkpt>
      <trkpt lat="42.7216" lon="1.98101">
        <ele>2061.2</ele>
        <time>2017-02-10T13:07:03Z</time>
      </trkpt>
      <trkpt lat="42.72166" lon="1.9811">
        <ele>2060.24</ele>
        <time>2017-02-10T13:07:16Z</time>
      </trkpt>
      <trkpt lat="42.72174" lon="1.9812">
        <ele>2058.32</ele>
        <time>2017-02-10T13:07:27Z</time>
      </trkpt>
      <trkpt lat="42.72182" lon="1.98125">
        <ele>2056.4</ele>
        <time>2017-02-10T13:07:39Z</time>
      </trkpt>
      <trkpt lat="42.7219" lon="1.98132">
        <ele>2054.96</ele>
        <time>2017-02-10T13:07:52Z</time>
      </trkpt>
      <trkpt lat="42.72198" lon="1.98139">
        <ele>2053.51</ele>
        <time>2017-02-10T13:08:04Z</time>
      </trkpt>
      <trkpt lat="42.72203" lon="1.9815">
        <ele>2052.07</ele>
        <time>2017-02-10T13:08:17Z</time>
      </trkpt>
      <trkpt lat="42.72209" lon="1.98161">
        <ele>2048.71</ele>
        <time>2017-02-10T13:08:30Z</time>
      </trkpt>
      <trkpt lat="42.72218" lon="1.98169">
        <ele>2048.71</ele>
        <time>2017-02-10T13:08:43Z</time>
      </trkpt>
      <trkpt lat="42.72225" lon="1.98178">
        <ele>2046.78</ele>
        <time>2017-02-10T13:08:55Z</time>
      </trkpt>
      <trkpt lat="42.72233" lon="1.98184">
        <ele>2045.34</ele>
        <time>2017-02-10T13:09:07Z</time>
      </trkpt>
      <trkpt lat="42.72242" lon="1.98191">
        <ele>2044.86</ele>
        <time>2017-02-10T13:09:18Z</time>
      </trkpt>
      <trkpt lat="42.72249" lon="1.982">
        <ele>2043.42</ele>
        <time>2017-02-10T13:09:30Z</time>
      </trkpt>
      <trkpt lat="42.72259" lon="1.98205">
        <ele>2042.94</ele>
        <time>2017-02-10T13:09:41Z</time>
      </trkpt>
      <trkpt lat="42.72269" lon="1.98209">
        <ele>2041.5</ele>
        <time>2017-02-10T13:09:54Z</time>
      </trkpt>
      <trkpt lat="42.72278" lon="1.98212">
        <ele>2040.05</ele>
        <time>2017-02-10T13:10:05Z</time>
      </trkpt>
      <trkpt lat="42.72286" lon="1.98219">
        <ele>2040.05</ele>
        <time>2017-02-10T13:10:17Z</time>
      </trkpt>
      <trkpt lat="42.72295" lon="1.98221">
        <ele>2039.57</ele>
        <time>2017-02-10T13:10:28Z</time>
      </trkpt>
      <trkpt lat="42.72305" lon="1.98223">
        <ele>2037.65</ele>
        <time>2017-02-10T13:10:41Z</time>
      </trkpt>
      <trkpt lat="42.72314" lon="1.9822">
        <ele>2037.17</ele>
        <time>2017-02-10T13:10:54Z</time>
      </trkpt>
      <trkpt lat="42.72324" lon="1.98221">
        <ele>2034.77</ele>
        <time>2017-02-10T13:11:04Z</time>
      </trkpt>
      <trkpt lat="42.72333" lon="1.98224">
        <ele>2032.36</ele>
        <time>2017-02-10T13:11:13Z</time>
      </trkpt>
      <trkpt lat="42.72342" lon="1.98228">
        <ele>2029.48</ele>
        <time>2017-02-10T13:11:23Z</time>
      </trkpt>
      <trkpt lat="42.72351" lon="1.98229">
        <ele>2027.08</ele>
        <time>2017-02-10T13:11:34Z</time>
      </trkpt>
      <trkpt lat="42.7236" lon="1.98231">
        <ele>2024.67</ele>
        <time>2017-02-10T13:11:44Z</time>
      </trkpt>
      <trkpt lat="42.72369" lon="1.98236">
        <ele>2024.67</ele>
        <time>2017-02-10T13:11:54Z</time>
      </trkpt>
      <trkpt lat="42.72377" lon="1.98243">
        <ele>2023.23</ele>
        <time>2017-02-10T13:12:04Z</time>
      </trkpt>
      <trkpt lat="42.72384" lon="1.98248">
        <ele>2022.75</ele>
        <time>2017-02-10T13:12:13Z</time>
      </trkpt>
      <trkpt lat="42.72392" lon="1.98254">
        <ele>2021.79</ele>
        <time>2017-02-10T13:12:22Z</time>
      </trkpt>
      <trkpt lat="42.724" lon="1.9826">
        <ele>2020.83</ele>
        <time>2017-02-10T13:12:32Z</time>
      </trkpt>
      <trkpt lat="42.72408" lon="1.98266">
        <ele>2020.35</ele>
        <time>2017-02-10T13:12:41Z</time>
      </trkpt>
      <trkpt lat="42.72416" lon="1.98271">
        <ele>2018.43</ele>
        <time>2017-02-10T13:12:50Z</time>
      </trkpt>
      <trkpt lat="42.72425" lon="1.98273">
        <ele>2018.91</ele>
        <time>2017-02-10T13:12:59Z</time>
      </trkpt>
      <trkpt lat="42.72434" lon="1.98278">
        <ele>2018.43</ele>
        <time>2017-02-10T13:13:08Z</time>
      </trkpt>
      <trkpt lat="42.72444" lon="1.9828">
        <ele>2016.98</ele>
        <time>2017-02-10T13:13:18Z</time>
      </trkpt>
      <trkpt lat="42.72452" lon="1.98283">
        <ele>2016.02</ele>
        <time>2017-02-10T13:13:27Z</time>
      </trkpt>
      <trkpt lat="42.72462" lon="1.98286">
        <ele>2014.58</ele>
        <time>2017-02-10T13:13:36Z</time>
      </trkpt>
      <trkpt lat="42.7247" lon="1.98288">
        <ele>2015.54</ele>
        <time>2017-02-10T13:13:45Z</time>
      </trkpt>
      <trkpt lat="42.72479" lon="1.98291">
        <ele>2014.1</ele>
        <time>2017-02-10T13:13:55Z</time>
      </trkpt>
      <trkpt lat="42.72488" lon="1.98293">
        <ele>2014.58</ele>
        <time>2017-02-10T13:14:04Z</time>
      </trkpt>
      <trkpt lat="42.72496" lon="1.98296">
        <ele>2011.22</ele>
        <time>2017-02-10T13:14:14Z</time>
      </trkpt>
      <trkpt lat="42.72504" lon="1.98298">
        <ele>2010.73</ele>
        <time>2017-02-10T13:14:24Z</time>
      </trkpt>
      <trkpt lat="42.72512" lon="1.98303">
        <ele>2010.25</ele>
        <time>2017-02-10T13:14:33Z</time>
      </trkpt>
      <trkpt lat="42.72522" lon="1.98303">
        <ele>2010.25</ele>
        <time>2017-02-10T13:14:43Z</time>
      </trkpt>
      <trkpt lat="42.72531" lon="1.98304">
        <ele>2009.29</ele>
        <time>2017-02-10T13:14:52Z</time>
      </trkpt>
      <trkpt lat="42.7254" lon="1.98306">
        <ele>2008.81</ele>
        <time>2017-02-10T13:15:02Z</time>
      </trkpt>
      <trkpt lat="42.72549" lon="1.9831">
        <ele>2007.85</ele>
        <time>2017-02-10T13:15:12Z</time>
      </trkpt>
      <trkpt lat="42.72559" lon="1.98311">
        <ele>2006.89</ele>
        <time>2017-02-10T13:15:21Z</time>
      </trkpt>
      <trkpt lat="42.72569" lon="1.98312">
        <ele>2005.93</ele>
        <time>2017-02-10T13:15:32Z</time>
      </trkpt>
      <trkpt lat="42.72578" lon="1.98312">
        <ele>2005.93</ele>
        <time>2017-02-10T13:15:41Z</time>
      </trkpt>
      <trkpt lat="42.72587" lon="1.98316">
        <ele>2005.45</ele>
        <time>2017-02-10T13:15:50Z</time>
      </trkpt>
      <trkpt lat="42.72596" lon="1.9832">
        <ele>2004.97</ele>
        <time>2017-02-10T13:16:00Z</time>
      </trkpt>
      <trkpt lat="42.72597" lon="1.98327">
        <ele>2003.52</ele>
        <time>2017-02-10T13:16:19Z</time>
      </trkpt>
      <trkpt lat="42.72605" lon="1.98336">
        <ele>2003.04</ele>
        <time>2017-02-10T13:16:30Z</time>
      </trkpt>
      <trkpt lat="42.72612" lon="1.98345">
        <ele>2002.08</ele>
        <time>2017-02-10T13:16:40Z</time>
      </trkpt>
      <trkpt lat="42.72621" lon="1.98351">
        <ele>2002.08</ele>
        <time>2017-02-10T13:16:49Z</time>
      </trkpt>
      <trkpt lat="42.72629" lon="1.98358">
        <ele>2000.64</ele>
        <time>2017-02-10T13:17:00Z</time>
      </trkpt>
      <trkpt lat="42.72638" lon="1.98363">
        <ele>1999.68</ele>
        <time>2017-02-10T13:17:11Z</time>
      </trkpt>
      <trkpt lat="42.72645" lon="1.9837">
        <ele>1997.28</ele>
        <time>2017-02-10T13:17:21Z</time>
      </trkpt>
      <trkpt lat="42.72654" lon="1.98373">
        <ele>1996.8</ele>
        <time>2017-02-10T13:17:32Z</time>
      </trkpt>
      <trkpt lat="42.72661" lon="1.98382">
        <ele>1994.87</ele>
        <time>2017-02-10T13:17:42Z</time>
      </trkpt>
      <trkpt lat="42.7267" lon="1.98387">
        <ele>1992.47</ele>
        <time>2017-02-10T13:17:52Z</time>
      </trkpt>
      <trkpt lat="42.72679" lon="1.98393">
        <ele>1992.47</ele>
        <time>2017-02-10T13:18:02Z</time>
      </trkpt>
      <trkpt lat="42.72688" lon="1.98396">
        <ele>1990.07</ele>
        <time>2017-02-10T13:18:12Z</time>
      </trkpt>
      <trkpt lat="42.72697" lon="1.98401">
        <ele>1990.55</ele>
        <time>2017-02-10T13:18:22Z</time>
      </trkpt>
      <trkpt lat="42.72706" lon="1.98404">
        <ele>1989.1</ele>
        <time>2017-02-10T13:18:33Z</time>
      </trkpt>
      <trkpt lat="42.72716" lon="1.98406">
        <ele>1987.18</ele>
        <time>2017-02-10T13:18:43Z</time>
      </trkpt>
      <trkpt lat="42.72725" lon="1.98411">
        <ele>1986.22</ele>
        <time>2017-02-10T13:18:54Z</time>
      </trkpt>
      <trkpt lat="42.72731" lon="1.9842">
        <ele>1986.22</ele>
        <time>2017-02-10T13:19:05Z</time>
      </trkpt>
      <trkpt lat="42.72741" lon="1.98426">
        <ele>1985.74</ele>
        <time>2017-02-10T13:19:16Z</time>
      </trkpt>
      <trkpt lat="42.7275" lon="1.98431">
        <ele>1984.3</ele>
        <time>2017-02-10T13:19:29Z</time>
      </trkpt>
      <trkpt lat="42.7276" lon="1.98435">
        <ele>1984.3</ele>
        <time>2017-02-10T13:19:41Z</time>
      </trkpt>
      <trkpt lat="42.72769" lon="1.98438">
        <ele>1983.34</ele>
        <time>2017-02-10T13:19:53Z</time>
      </trkpt>
      <trkpt lat="42.7278" lon="1.9844">
        <ele>1982.86</ele>
        <time>2017-02-10T13:20:05Z</time>
      </trkpt>
      <trkpt lat="42.72789" lon="1.98442">
        <ele>1981.41</ele>
        <time>2017-02-10T13:20:18Z</time>
      </trkpt>
      <trkpt lat="42.72799" lon="1.98445">
        <ele>1980.45</ele>
        <time>2017-02-10T13:20:29Z</time>
      </trkpt>
      <trkpt lat="42.72808" lon="1.98452">
        <ele>1979.97</ele>
        <time>2017-02-10T13:20:41Z</time>
      </trkpt>
      <trkpt lat="42.72817" lon="1.98455">
        <ele>1978.53</ele>
        <time>2017-02-10T13:20:52Z</time>
      </trkpt>
      <trkpt lat="42.72825" lon="1.98461">
        <ele>1977.57</ele>
        <time>2017-02-10T13:21:03Z</time>
      </trkpt>
      <trkpt lat="42.72835" lon="1.98462">
        <ele>1978.05</ele>
        <time>2017-02-10T13:21:16Z</time>
      </trkpt>
      <trkpt lat="42.72845" lon="1.98464">
        <ele>1975.65</ele>
        <time>2017-02-10T13:21:26Z</time>
      </trkpt>
      <trkpt lat="42.72855" lon="1.98468">
        <ele>1975.17</ele>
        <time>2017-02-10T13:21:38Z</time>
      </trkpt>
      <trkpt lat="42.72864" lon="1.9847">
        <ele>1975.17</ele>
        <time>2017-02-10T13:21:50Z</time>
      </trkpt>
      <trkpt lat="42.72873" lon="1.98474">
        <ele>1974.2</ele>
        <time>2017-02-10T13:22:02Z</time>
      </trkpt>
      <trkpt lat="42.72881" lon="1.9848">
        <ele>1973.24</ele>
        <time>2017-02-10T13:22:13Z</time>
      </trkpt>
      <trkpt lat="42.7289" lon="1.98487">
        <ele>1971.8</ele>
        <time>2017-02-10T13:22:25Z</time>
      </trkpt>
      <trkpt lat="42.72899" lon="1.98491">
        <ele>1971.32</ele>
        <time>2017-02-10T13:22:35Z</time>
      </trkpt>
      <trkpt lat="42.72908" lon="1.98493">
        <ele>1970.36</ele>
        <time>2017-02-10T13:22:46Z</time>
      </trkpt>
      <trkpt lat="42.72918" lon="1.98494">
        <ele>1970.84</ele>
        <time>2017-02-10T13:22:57Z</time>
      </trkpt>
      <trkpt lat="42.72928" lon="1.98494">
        <ele>1968.44</ele>
        <time>2017-02-10T13:23:10Z</time>
      </trkpt>
      <trkpt lat="42.72938" lon="1.98498">
        <ele>1967.48</ele>
        <time>2017-02-10T13:23:24Z</time>
      </trkpt>
      <trkpt lat="42.72947" lon="1.98502">
        <ele>1966.99</ele>
        <time>2017-02-10T13:23:35Z</time>
      </trkpt>
      <trkpt lat="42.72957" lon="1.98507">
        <ele>1966.03</ele>
        <time>2017-02-10T13:23:48Z</time>
      </trkpt>
      <trkpt lat="42.72967" lon="1.98511">
        <ele>1964.59</ele>
        <time>2017-02-10T13:24:01Z</time>
      </trkpt>
      <trkpt lat="42.72974" lon="1.98515">
        <ele>1964.11</ele>
        <time>2017-02-10T13:24:12Z</time>
      </trkpt>
      <trkpt lat="42.72984" lon="1.98518">
        <ele>1962.19</ele>
        <time>2017-02-10T13:24:23Z</time>
      </trkpt>
      <trkpt lat="42.72992" lon="1.98521">
        <ele>1961.23</ele>
        <time>2017-02-10T13:24:35Z</time>
      </trkpt>
      <trkpt lat="42.73002" lon="1.98524">
        <ele>1959.78</ele>
        <time>2017-02-10T13:24:48Z</time>
      </trkpt>
      <trkpt lat="42.73012" lon="1.98527">
        <ele>1959.78</ele>
        <time>2017-02-10T13:25:02Z</time>
      </trkpt>
      <trkpt lat="42.73021" lon="1.98531">
        <ele>1959.3</ele>
        <time>2017-02-10T13:25:14Z</time>
      </trkpt>
      <trkpt lat="42.7303" lon="1.98537">
        <ele>1957.86</ele>
        <time>2017-02-10T13:25:26Z</time>
      </trkpt>
      <trkpt lat="42.73039" lon="1.98543">
        <ele>1956.9</ele>
        <time>2017-02-10T13:25:38Z</time>
      </trkpt>
      <trkpt lat="42.73049" lon="1.98547">
        <ele>1954.5</ele>
        <time>2017-02-10T13:25:51Z</time>
      </trkpt>
      <trkpt lat="42.7306" lon="1.98548">
        <ele>1953.54</ele>
        <time>2017-02-10T13:26:04Z</time>
      </trkpt>
      <trkpt lat="42.7307" lon="1.98548">
        <ele>1953.06</ele>
        <time>2017-02-10T13:26:17Z</time>
      </trkpt>
      <trkpt lat="42.7308" lon="1.9855">
        <ele>1951.61</ele>
        <time>2017-02-10T13:26:29Z</time>
      </trkpt>
      <trkpt lat="42.73091" lon="1.98551">
        <ele>1950.65</ele>
        <time>2017-02-10T13:26:41Z</time>
      </trkpt>
      <trkpt lat="42.731" lon="1.98552">
        <ele>1949.69</ele>
        <time>2017-02-10T13:26:52Z</time>
      </trkpt>
      <trkpt lat="42.7311" lon="1.98554">
        <ele>1949.21</ele>
        <time>2017-02-10T13:27:04Z</time>
      </trkpt>
      <trkpt lat="42.73119" lon="1.98559">
        <ele>1947.29</ele>
        <time>2017-02-10T13:27:16Z</time>
      </trkpt>
      <trkpt lat="42.73128" lon="1.98562">
        <ele>1945.85</ele>
        <time>2017-02-10T13:27:27Z</time>
      </trkpt>
      <trkpt lat="42.73138" lon="1.98563">
        <ele>1944.88</ele>
        <time>2017-02-10T13:27:37Z</time>
      </trkpt>
      <trkpt lat="42.73148" lon="1.98564">
        <ele>1943.44</ele>
        <time>2017-02-10T13:27:47Z</time>
      </trkpt>
      <trkpt lat="42.73157" lon="1.98567">
        <ele>1942.96</ele>
        <time>2017-02-10T13:27:57Z</time>
      </trkpt>
      <trkpt lat="42.73166" lon="1.98569">
        <ele>1942</ele>
        <time>2017-02-10T13:28:08Z</time>
      </trkpt>
      <trkpt lat="42.73176" lon="1.98571">
        <ele>1941.04</ele>
        <time>2017-02-10T13:28:18Z</time>
      </trkpt>
      <trkpt lat="42.73185" lon="1.98571">
        <ele>1939.6</ele>
        <time>2017-02-10T13:28:28Z</time>
      </trkpt>
      <trkpt lat="42.73195" lon="1.98571">
        <ele>1938.16</ele>
        <time>2017-02-10T13:28:41Z</time>
      </trkpt>
      <trkpt lat="42.73206" lon="1.98569">
        <ele>1936.23</ele>
        <time>2017-02-10T13:28:53Z</time>
      </trkpt>
      <trkpt lat="42.73216" lon="1.98567">
        <ele>1934.31</ele>
        <time>2017-02-10T13:29:03Z</time>
      </trkpt>
      <trkpt lat="42.73225" lon="1.98567">
        <ele>1932.39</ele>
        <time>2017-02-10T13:29:12Z</time>
      </trkpt>
      <trkpt lat="42.73235" lon="1.98569">
        <ele>1931.91</ele>
        <time>2017-02-10T13:29:23Z</time>
      </trkpt>
      <trkpt lat="42.73244" lon="1.98569">
        <ele>1930.46</ele>
        <time>2017-02-10T13:29:35Z</time>
      </trkpt>
      <trkpt lat="42.73255" lon="1.9857">
        <ele>1928.54</ele>
        <time>2017-02-10T13:29:48Z</time>
      </trkpt>
      <trkpt lat="42.73266" lon="1.98572">
        <ele>1926.62</ele>
        <time>2017-02-10T13:29:59Z</time>
      </trkpt>
      <trkpt lat="42.73276" lon="1.9857">
        <ele>1928.06</ele>
        <time>2017-02-10T13:30:10Z</time>
      </trkpt>
      <trkpt lat="42.73287" lon="1.98566">
        <ele>1925.66</ele>
        <time>2017-02-10T13:30:21Z</time>
      </trkpt>
      <trkpt lat="42.73296" lon="1.98558">
        <ele>1924.7</ele>
        <time>2017-02-10T13:30:32Z</time>
      </trkpt>
      <trkpt lat="42.73304" lon="1.98552">
        <ele>1923.25</ele>
        <time>2017-02-10T13:30:55Z</time>
      </trkpt>
      <trkpt lat="42.73311" lon="1.98545">
        <ele>1921.81</ele>
        <time>2017-02-10T13:31:06Z</time>
      </trkpt>
      <trkpt lat="42.73322" lon="1.9854">
        <ele>1921.33</ele>
        <time>2017-02-10T13:31:29Z</time>
      </trkpt>
      <trkpt lat="42.73331" lon="1.98532">
        <ele>1920.85</ele>
        <time>2017-02-10T13:31:40Z</time>
      </trkpt>
      <trkpt lat="42.73339" lon="1.98526">
        <ele>1920.85</ele>
        <time>2017-02-10T13:31:51Z</time>
      </trkpt>
      <trkpt lat="42.73345" lon="1.98519">
        <ele>1920.37</ele>
        <time>2017-02-10T13:32:01Z</time>
      </trkpt>
      <trkpt lat="42.73352" lon="1.98511">
        <ele>1921.33</ele>
        <time>2017-02-10T13:32:13Z</time>
      </trkpt>
      <trkpt lat="42.73358" lon="1.985">
        <ele>1921.33</ele>
        <time>2017-02-10T13:32:24Z</time>
      </trkpt>
      <trkpt lat="42.73366" lon="1.98492">
        <ele>1919.41</ele>
        <time>2017-02-10T13:32:35Z</time>
      </trkpt>
      <trkpt lat="42.73375" lon="1.98489">
        <ele>1920.37</ele>
        <time>2017-02-10T13:32:48Z</time>
      </trkpt>
      <trkpt lat="42.73384" lon="1.98484">
        <ele>1920.85</ele>
        <time>2017-02-10T13:33:06Z</time>
      </trkpt>
      <trkpt lat="42.73391" lon="1.98473">
        <ele>1919.41</ele>
        <time>2017-02-10T13:33:17Z</time>
      </trkpt>
      <trkpt lat="42.73398" lon="1.98462">
        <ele>1919.89</ele>
        <time>2017-02-10T13:33:28Z</time>
      </trkpt>
      <trkpt lat="42.73403" lon="1.98448">
        <ele>1919.89</ele>
        <time>2017-02-10T13:33:40Z</time>
      </trkpt>
      <trkpt lat="42.73403" lon="1.98435">
        <ele>1920.37</ele>
        <time>2017-02-10T13:33:51Z</time>
      </trkpt>
      <trkpt lat="42.73406" lon="1.98423">
        <ele>1920.37</ele>
        <time>2017-02-10T13:34:02Z</time>
      </trkpt>
      <trkpt lat="42.73407" lon="1.9841">
        <ele>1918.93</ele>
        <time>2017-02-10T13:34:12Z</time>
      </trkpt>
      <trkpt lat="42.73409" lon="1.98397">
        <ele>1918.45</ele>
        <time>2017-02-10T13:34:23Z</time>
      </trkpt>
      <trkpt lat="42.73412" lon="1.98385">
        <ele>1917.97</ele>
        <time>2017-02-10T13:34:34Z</time>
      </trkpt>
      <trkpt lat="42.73416" lon="1.98373">
        <ele>1916.53</ele>
        <time>2017-02-10T13:34:44Z</time>
      </trkpt>
      <trkpt lat="42.73417" lon="1.98359">
        <ele>1916.04</ele>
        <time>2017-02-10T13:34:54Z</time>
      </trkpt>
      <trkpt lat="42.73416" lon="1.98345">
        <ele>1914.12</ele>
        <time>2017-02-10T13:35:04Z</time>
      </trkpt>
      <trkpt lat="42.73416" lon="1.98332">
        <ele>1913.64</ele>
        <time>2017-02-10T13:35:13Z</time>
      </trkpt>
      <trkpt lat="42.73419" lon="1.9832">
        <ele>1913.16</ele>
        <time>2017-02-10T13:35:23Z</time>
      </trkpt>
      <trkpt lat="42.7342" lon="1.98307">
        <ele>1912.68</ele>
        <time>2017-02-10T13:35:34Z</time>
      </trkpt>
      <trkpt lat="42.73417" lon="1.98292">
        <ele>1910.76</ele>
        <time>2017-02-10T13:35:51Z</time>
      </trkpt>
      <trkpt lat="42.73415" lon="1.9828">
        <ele>1910.28</ele>
        <time>2017-02-10T13:36:00Z</time>
      </trkpt>
      <trkpt lat="42.73412" lon="1.98267">
        <ele>1909.32</ele>
        <time>2017-02-10T13:36:09Z</time>
      </trkpt>
      <trkpt lat="42.73409" lon="1.98255">
        <ele>1907.87</ele>
        <time>2017-02-10T13:36:18Z</time>
      </trkpt>
      <trkpt lat="42.73407" lon="1.98243">
        <ele>1907.39</ele>
        <time>2017-02-10T13:36:27Z</time>
      </trkpt>
      <trkpt lat="42.73403" lon="1.98231">
        <ele>1905.95</ele>
        <time>2017-02-10T13:36:37Z</time>
      </trkpt>
      <trkpt lat="42.73399" lon="1.98219">
        <ele>1904.99</ele>
        <time>2017-02-10T13:36:47Z</time>
      </trkpt>
      <trkpt lat="42.73396" lon="1.98208">
        <ele>1904.51</ele>
        <time>2017-02-10T13:36:56Z</time>
      </trkpt>
      <trkpt lat="42.7339" lon="1.98197">
        <ele>1902.59</ele>
        <time>2017-02-10T13:37:05Z</time>
      </trkpt>
      <trkpt lat="42.73385" lon="1.98186">
        <ele>1902.59</ele>
        <time>2017-02-10T13:37:14Z</time>
      </trkpt>
      <trkpt lat="42.73379" lon="1.98174">
        <ele>1900.66</ele>
        <time>2017-02-10T13:37:24Z</time>
      </trkpt>
      <trkpt lat="42.73373" lon="1.98164">
        <ele>1899.7</ele>
        <time>2017-02-10T13:37:33Z</time>
      </trkpt>
      <trkpt lat="42.73369" lon="1.98154">
        <ele>1899.22</ele>
        <time>2017-02-10T13:37:42Z</time>
      </trkpt>
      <trkpt lat="42.73364" lon="1.98143">
        <ele>1898.26</ele>
        <time>2017-02-10T13:37:51Z</time>
      </trkpt>
      <trkpt lat="42.73358" lon="1.98133">
        <ele>1897.3</ele>
        <time>2017-02-10T13:38:00Z</time>
      </trkpt>
      <trkpt lat="42.73352" lon="1.98125">
        <ele>1895.38</ele>
        <time>2017-02-10T13:38:10Z</time>
      </trkpt>
      <trkpt lat="42.73348" lon="1.98113">
        <ele>1895.38</ele>
        <time>2017-02-10T13:38:21Z</time>
      </trkpt>
      <trkpt lat="42.73344" lon="1.98102">
        <ele>1893.45</ele>
        <time>2017-02-10T13:38:30Z</time>
      </trkpt>
      <trkpt lat="42.73338" lon="1.98091">
        <ele>1892.97</ele>
        <time>2017-02-10T13:38:40Z</time>
      </trkpt>
      <trkpt lat="42.73333" lon="1.98079">
        <ele>1892.49</ele>
        <time>2017-02-10T13:38:50Z</time>
      </trkpt>
      <trkpt lat="42.73327" lon="1.98068">
        <ele>1890.57</ele>
        <time>2017-02-10T13:38:59Z</time>
      </trkpt>
      <trkpt lat="42.73322" lon="1.98057">
        <ele>1889.13</ele>
        <time>2017-02-10T13:39:09Z</time>
      </trkpt>
      <trkpt lat="42.73318" lon="1.98046">
        <ele>1888.65</ele>
        <time>2017-02-10T13:39:18Z</time>
      </trkpt>
      <trkpt lat="42.73315" lon="1.98033">
        <ele>1887.69</ele>
        <time>2017-02-10T13:39:28Z</time>
      </trkpt>
      <trkpt lat="42.73314" lon="1.9802">
        <ele>1886.72</ele>
        <time>2017-02-10T13:39:37Z</time>
      </trkpt>
      <trkpt lat="42.73312" lon="1.98006">
        <ele>1886.24</ele>
        <time>2017-02-10T13:39:47Z</time>
      </trkpt>
      <trkpt lat="42.73311" lon="1.97993">
        <ele>1884.32</ele>
        <time>2017-02-10T13:39:56Z</time>
      </trkpt>
      <trkpt lat="42.73311" lon="1.9798">
        <ele>1883.36</ele>
        <time>2017-02-10T13:40:05Z</time>
      </trkpt>
      <trkpt lat="42.7331" lon="1.97966">
        <ele>1881.92</ele>
        <time>2017-02-10T13:40:14Z</time>
      </trkpt>
      <trkpt lat="42.7331" lon="1.97953">
        <ele>1881.44</ele>
        <time>2017-02-10T13:40:23Z</time>
      </trkpt>
      <trkpt lat="42.73309" lon="1.9794">
        <ele>1880.96</ele>
        <time>2017-02-10T13:40:32Z</time>
      </trkpt>
      <trkpt lat="42.73308" lon="1.97929">
        <ele>1878.55</ele>
        <time>2017-02-10T13:40:40Z</time>
      </trkpt>
      <trkpt lat="42.73306" lon="1.97917">
        <ele>1878.07</ele>
        <time>2017-02-10T13:40:49Z</time>
      </trkpt>
      <trkpt lat="42.73301" lon="1.97905">
        <ele>1877.59</ele>
        <time>2017-02-10T13:41:01Z</time>
      </trkpt>
      <trkpt lat="42.73299" lon="1.97892">
        <ele>1876.15</ele>
        <time>2017-02-10T13:41:36Z</time>
      </trkpt>
      <trkpt lat="42.73295" lon="1.97882">
        <ele>1875.19</ele>
        <time>2017-02-10T13:41:52Z</time>
      </trkpt>
      <trkpt lat="42.73293" lon="1.97869">
        <ele>1875.19</ele>
        <time>2017-02-10T13:42:02Z</time>
      </trkpt>
      <trkpt lat="42.73288" lon="1.97857">
        <ele>1873.27</ele>
        <time>2017-02-10T13:42:10Z</time>
      </trkpt>
      <trkpt lat="42.73283" lon="1.97845">
        <ele>1872.3</ele>
        <time>2017-02-10T13:42:20Z</time>
      </trkpt>
      <trkpt lat="42.73277" lon="1.97835">
        <ele>1871.82</ele>
        <time>2017-02-10T13:42:29Z</time>
      </trkpt>
      <trkpt lat="42.73272" lon="1.97824">
        <ele>1870.38</ele>
        <time>2017-02-10T13:42:38Z</time>
      </trkpt>
      <trkpt lat="42.73266" lon="1.97815">
        <ele>1867.98</ele>
        <time>2017-02-10T13:42:46Z</time>
      </trkpt>
      <trkpt lat="42.73261" lon="1.97804">
        <ele>1867.98</ele>
        <time>2017-02-10T13:42:55Z</time>
      </trkpt>
      <trkpt lat="42.73256" lon="1.97794">
        <ele>1867.02</ele>
        <time>2017-02-10T13:43:03Z</time>
      </trkpt>
      <trkpt lat="42.7325" lon="1.97785">
        <ele>1866.54</ele>
        <time>2017-02-10T13:43:11Z</time>
      </trkpt>
      <trkpt lat="42.73244" lon="1.97777">
        <ele>1866.06</ele>
        <time>2017-02-10T13:43:19Z</time>
      </trkpt>
      <trkpt lat="42.73238" lon="1.97768">
        <ele>1865.58</ele>
        <time>2017-02-10T13:43:27Z</time>
      </trkpt>
      <trkpt lat="42.73232" lon="1.97761">
        <ele>1864.13</ele>
        <time>2017-02-10T13:43:35Z</time>
      </trkpt>
      <trkpt lat="42.73225" lon="1.97754">
        <ele>1863.17</ele>
        <time>2017-02-10T13:43:45Z</time>
      </trkpt>
      <trkpt lat="42.73219" lon="1.97746">
        <ele>1862.69</ele>
        <time>2017-02-10T13:43:54Z</time>
      </trkpt>
      <trkpt lat="42.73212" lon="1.97737">
        <ele>1860.77</ele>
        <time>2017-02-10T13:44:04Z</time>
      </trkpt>
      <trkpt lat="42.73205" lon="1.97727">
        <ele>1859.33</ele>
        <time>2017-02-10T13:44:14Z</time>
      </trkpt>
      <trkpt lat="42.732" lon="1.97717">
        <ele>1858.37</ele>
        <time>2017-02-10T13:44:24Z</time>
      </trkpt>
      <trkpt lat="42.73194" lon="1.97707">
        <ele>1857.89</ele>
        <time>2017-02-10T13:44:33Z</time>
      </trkpt>
      <trkpt lat="42.73187" lon="1.97697">
        <ele>1857.4</ele>
        <time>2017-02-10T13:44:42Z</time>
      </trkpt>
      <trkpt lat="42.73182" lon="1.97688">
        <ele>1856.44</ele>
        <time>2017-02-10T13:44:54Z</time>
      </trkpt>
      <trkpt lat="42.73177" lon="1.97678">
        <ele>1855.96</ele>
        <time>2017-02-10T13:45:05Z</time>
      </trkpt>
      <trkpt lat="42.73171" lon="1.97668">
        <ele>1855.48</ele>
        <time>2017-02-10T13:45:18Z</time>
      </trkpt>
      <trkpt lat="42.73165" lon="1.97658">
        <ele>1855</ele>
        <time>2017-02-10T13:45:31Z</time>
      </trkpt>
      <trkpt lat="42.73159" lon="1.97648">
        <ele>1853.08</ele>
        <time>2017-02-10T13:45:44Z</time>
      </trkpt>
      <trkpt lat="42.73153" lon="1.97637">
        <ele>1852.12</ele>
        <time>2017-02-10T13:45:55Z</time>
      </trkpt>
      <trkpt lat="42.73149" lon="1.97625">
        <ele>1851.16</ele>
        <time>2017-02-10T13:46:05Z</time>
      </trkpt>
      <trkpt lat="42.73145" lon="1.97613">
        <ele>1850.19</ele>
        <time>2017-02-10T13:46:15Z</time>
      </trkpt>
      <trkpt lat="42.7314" lon="1.97601">
        <ele>1848.75</ele>
        <time>2017-02-10T13:46:25Z</time>
      </trkpt>
      <trkpt lat="42.73136" lon="1.9759">
        <ele>1847.31</ele>
        <time>2017-02-10T13:46:34Z</time>
      </trkpt>
      <trkpt lat="42.73133" lon="1.97579">
        <ele>1847.31</ele>
        <time>2017-02-10T13:46:43Z</time>
      </trkpt>
      <trkpt lat="42.7313" lon="1.97567">
        <ele>1846.35</ele>
        <time>2017-02-10T13:46:52Z</time>
      </trkpt>
      <trkpt lat="42.73127" lon="1.97556">
        <ele>1846.35</ele>
        <time>2017-02-10T13:47:01Z</time>
      </trkpt>
      <trkpt lat="42.73124" lon="1.97545">
        <ele>1844.43</ele>
        <time>2017-02-10T13:47:11Z</time>
      </trkpt>
      <trkpt lat="42.73122" lon="1.97531">
        <ele>1843.95</ele>
        <time>2017-02-10T13:47:20Z</time>
      </trkpt>
      <trkpt lat="42.73119" lon="1.97519">
        <ele>1842.98</ele>
        <time>2017-02-10T13:47:29Z</time>
      </trkpt>
      <trkpt lat="42.73116" lon="1.97507">
        <ele>1841.06</ele>
        <time>2017-02-10T13:47:38Z</time>
      </trkpt>
      <trkpt lat="42.73114" lon="1.97495">
        <ele>1841.54</ele>
        <time>2017-02-10T13:47:47Z</time>
      </trkpt>
      <trkpt lat="42.73112" lon="1.97483">
        <ele>1840.1</ele>
        <time>2017-02-10T13:47:56Z</time>
      </trkpt>
      <trkpt lat="42.7311" lon="1.97471">
        <ele>1839.14</ele>
        <time>2017-02-10T13:48:05Z</time>
      </trkpt>
      <trkpt lat="42.73107" lon="1.97457">
        <ele>1838.18</ele>
        <time>2017-02-10T13:48:14Z</time>
      </trkpt>
      <trkpt lat="42.73105" lon="1.97444">
        <ele>1837.7</ele>
        <time>2017-02-10T13:48:23Z</time>
      </trkpt>
      <trkpt lat="42.73104" lon="1.9743">
        <ele>1836.26</ele>
        <time>2017-02-10T13:48:32Z</time>
      </trkpt>
      <trkpt lat="42.73102" lon="1.97418">
        <ele>1834.81</ele>
        <time>2017-02-10T13:48:41Z</time>
      </trkpt>
      <trkpt lat="42.73101" lon="1.97406">
        <ele>1833.85</ele>
        <time>2017-02-10T13:48:50Z</time>
      </trkpt>
      <trkpt lat="42.73099" lon="1.97392">
        <ele>1832.89</ele>
        <time>2017-02-10T13:48:59Z</time>
      </trkpt>
      <trkpt lat="42.73099" lon="1.97377">
        <ele>1830.97</ele>
        <time>2017-02-10T13:49:08Z</time>
      </trkpt>
      <trkpt lat="42.73098" lon="1.97363">
        <ele>1830.49</ele>
        <time>2017-02-10T13:49:17Z</time>
      </trkpt>
      <trkpt lat="42.73097" lon="1.97349">
        <ele>1829.53</ele>
        <time>2017-02-10T13:49:26Z</time>
      </trkpt>
      <trkpt lat="42.73097" lon="1.97336">
        <ele>1828.56</ele>
        <time>2017-02-10T13:49:35Z</time>
      </trkpt>
      <trkpt lat="42.73096" lon="1.97323">
        <ele>1827.12</ele>
        <time>2017-02-10T13:49:44Z</time>
      </trkpt>
      <trkpt lat="42.73094" lon="1.97309">
        <ele>1825.68</ele>
        <time>2017-02-10T13:49:53Z</time>
      </trkpt>
      <trkpt lat="42.73094" lon="1.97297">
        <ele>1824.72</ele>
        <time>2017-02-10T13:50:02Z</time>
      </trkpt>
      <trkpt lat="42.73093" lon="1.97283">
        <ele>1823.76</ele>
        <time>2017-02-10T13:50:11Z</time>
      </trkpt>
      <trkpt lat="42.73093" lon="1.97269">
        <ele>1822.8</ele>
        <time>2017-02-10T13:50:20Z</time>
      </trkpt>
      <trkpt lat="42.73091" lon="1.97259">
        <ele>1821.35</ele>
        <time>2017-02-10T13:53:03Z</time>
      </trkpt>
      <trkpt lat="42.73095" lon="1.9725">
        <ele>1820.39</ele>
        <time>2017-02-10T13:55:06Z</time>
      </trkpt>
      <trkpt lat="42.73094" lon="1.97235">
        <ele>1819.91</ele>
        <time>2017-02-10T13:55:19Z</time>
      </trkpt>
      <trkpt lat="42.73091" lon="1.97222">
        <ele>1818.95</ele>
        <time>2017-02-10T13:55:29Z</time>
      </trkpt>
      <trkpt lat="42.73091" lon="1.97209">
        <ele>1817.51</ele>
        <time>2017-02-10T13:55:39Z</time>
      </trkpt>
      <trkpt lat="42.7309" lon="1.97196">
        <ele>1816.55</ele>
        <time>2017-02-10T13:55:48Z</time>
      </trkpt>
      <trkpt lat="42.73089" lon="1.97184">
        <ele>1815.59</ele>
        <time>2017-02-10T13:55:58Z</time>
      </trkpt>
      <trkpt lat="42.73088" lon="1.97171">
        <ele>1814.63</ele>
        <time>2017-02-10T13:56:07Z</time>
      </trkpt>
      <trkpt lat="42.73088" lon="1.97158">
        <ele>1813.18</ele>
        <time>2017-02-10T13:56:17Z</time>
      </trkpt>
      <trkpt lat="42.73088" lon="1.97144">
        <ele>1812.7</ele>
        <time>2017-02-10T13:56:26Z</time>
      </trkpt>
      <trkpt lat="42.73084" lon="1.97131">
        <ele>1811.74</ele>
        <time>2017-02-10T13:56:36Z</time>
      </trkpt>
      <trkpt lat="42.73077" lon="1.97122">
        <ele>1810.3</ele>
        <time>2017-02-10T13:56:45Z</time>
      </trkpt>
      <trkpt lat="42.73073" lon="1.97111">
        <ele>1809.34</ele>
        <time>2017-02-10T13:56:53Z</time>
      </trkpt>
      <trkpt lat="42.73067" lon="1.97102">
        <ele>1808.38</ele>
        <time>2017-02-10T13:57:01Z</time>
      </trkpt>
      <trkpt lat="42.73063" lon="1.97091">
        <ele>1807.42</ele>
        <time>2017-02-10T13:57:09Z</time>
      </trkpt>
      <trkpt lat="42.73058" lon="1.9708">
        <ele>1805.97</ele>
        <time>2017-02-10T13:57:18Z</time>
      </trkpt>
      <trkpt lat="42.73052" lon="1.97071">
        <ele>1805.49</ele>
        <time>2017-02-10T13:57:27Z</time>
      </trkpt>
      <trkpt lat="42.73047" lon="1.97061">
        <ele>1804.05</ele>
        <time>2017-02-10T13:57:35Z</time>
      </trkpt>
      <trkpt lat="42.73042" lon="1.97051">
        <ele>1803.57</ele>
        <time>2017-02-10T13:57:43Z</time>
      </trkpt>
      <trkpt lat="42.73035" lon="1.97041">
        <ele>1801.17</ele>
        <time>2017-02-10T13:57:52Z</time>
      </trkpt>
      <trkpt lat="42.73031" lon="1.9703">
        <ele>1801.17</ele>
        <time>2017-02-10T13:58:00Z</time>
      </trkpt>
      <trkpt lat="42.73027" lon="1.9702">
        <ele>1800.69</ele>
        <time>2017-02-10T13:58:11Z</time>
      </trkpt>
      <trkpt lat="42.73022" lon="1.97009">
        <ele>1799.73</ele>
        <time>2017-02-10T13:58:20Z</time>
      </trkpt>
      <trkpt lat="42.73016" lon="1.96999">
        <ele>1798.76</ele>
        <time>2017-02-10T13:58:28Z</time>
      </trkpt>
      <trkpt lat="42.7301" lon="1.96988">
        <ele>1797.8</ele>
        <time>2017-02-10T13:58:37Z</time>
      </trkpt>
      <trkpt lat="42.73004" lon="1.96978">
        <ele>1796.36</ele>
        <time>2017-02-10T13:58:46Z</time>
      </trkpt>
      <trkpt lat="42.72998" lon="1.96967">
        <ele>1794.92</ele>
        <time>2017-02-10T13:58:55Z</time>
      </trkpt>
      <trkpt lat="42.72994" lon="1.96955">
        <ele>1794.44</ele>
        <time>2017-02-10T13:59:04Z</time>
      </trkpt>
      <trkpt lat="42.72989" lon="1.96944">
        <ele>1793.48</ele>
        <time>2017-02-10T13:59:12Z</time>
      </trkpt>
      <trkpt lat="42.72984" lon="1.96933">
        <ele>1792.52</ele>
        <time>2017-02-10T13:59:21Z</time>
      </trkpt>
      <trkpt lat="42.72978" lon="1.96921">
        <ele>1791.55</ele>
        <time>2017-02-10T13:59:48Z</time>
      </trkpt>
      <trkpt lat="42.72973" lon="1.96909">
        <ele>1790.11</ele>
        <time>2017-02-10T13:59:57Z</time>
      </trkpt>
      <trkpt lat="42.7297" lon="1.96897">
        <ele>1789.63</ele>
        <time>2017-02-10T14:00:05Z</time>
      </trkpt>
      <trkpt lat="42.72966" lon="1.96887">
        <ele>1788.19</ele>
        <time>2017-02-10T14:00:13Z</time>
      </trkpt>
      <trkpt lat="42.7296" lon="1.96876">
        <ele>1787.23</ele>
        <time>2017-02-10T14:00:21Z</time>
      </trkpt>
      <trkpt lat="42.72957" lon="1.96864">
        <ele>1786.27</ele>
        <time>2017-02-10T14:00:30Z</time>
      </trkpt>
      <trkpt lat="42.72952" lon="1.96852">
        <ele>1785.31</ele>
        <time>2017-02-10T14:00:39Z</time>
      </trkpt>
      <trkpt lat="42.72947" lon="1.96843">
        <ele>1784.82</ele>
        <time>2017-02-10T14:00:47Z</time>
      </trkpt>
      <trkpt lat="42.72943" lon="1.96832">
        <ele>1783.86</ele>
        <time>2017-02-10T14:00:55Z</time>
      </trkpt>
      <trkpt lat="42.72938" lon="1.96821">
        <ele>1782.42</ele>
        <time>2017-02-10T14:01:04Z</time>
      </trkpt>
      <trkpt lat="42.72935" lon="1.96809">
        <ele>1781.46</ele>
        <time>2017-02-10T14:01:13Z</time>
      </trkpt>
      <trkpt lat="42.72932" lon="1.96796">
        <ele>1780.02</ele>
        <time>2017-02-10T14:01:21Z</time>
      </trkpt>
      <trkpt lat="42.7293" lon="1.96784">
        <ele>1779.54</ele>
        <time>2017-02-10T14:01:29Z</time>
      </trkpt>
      <trkpt lat="42.72925" lon="1.96773">
        <ele>1778.1</ele>
        <time>2017-02-10T14:01:37Z</time>
      </trkpt>
      <trkpt lat="42.7292" lon="1.96761">
        <ele>1776.65</ele>
        <time>2017-02-10T14:01:46Z</time>
      </trkpt>
      <trkpt lat="42.72916" lon="1.96749">
        <ele>1777.13</ele>
        <time>2017-02-10T14:01:55Z</time>
      </trkpt>
      <trkpt lat="42.72912" lon="1.96738">
        <ele>1774.73</ele>
        <time>2017-02-10T14:02:04Z</time>
      </trkpt>
      <trkpt lat="42.72907" lon="1.96727">
        <ele>1774.25</ele>
        <time>2017-02-10T14:02:14Z</time>
      </trkpt>
      <trkpt lat="42.72903" lon="1.96716">
        <ele>1772.81</ele>
        <time>2017-02-10T14:02:23Z</time>
      </trkpt>
      <trkpt lat="42.72899" lon="1.96704">
        <ele>1772.33</ele>
        <time>2017-02-10T14:02:32Z</time>
      </trkpt>
      <trkpt lat="42.72893" lon="1.96694">
        <ele>1771.37</ele>
        <time>2017-02-10T14:02:40Z</time>
      </trkpt>
      <trkpt lat="42.72889" lon="1.96682">
        <ele>1769.92</ele>
        <time>2017-02-10T14:02:48Z</time>
      </trkpt>
      <trkpt lat="42.72885" lon="1.9667">
        <ele>1768.96</ele>
        <time>2017-02-10T14:02:57Z</time>
      </trkpt>
      <trkpt lat="42.72881" lon="1.96657">
        <ele>1768.48</ele>
        <time>2017-02-10T14:03:06Z</time>
      </trkpt>
      <trkpt lat="42.72877" lon="1.96645">
        <ele>1767.04</ele>
        <time>2017-02-10T14:03:15Z</time>
      </trkpt>
      <trkpt lat="42.72874" lon="1.96634">
        <ele>1765.6</ele>
        <time>2017-02-10T14:03:23Z</time>
      </trkpt>
      <trkpt lat="42.72871" lon="1.96622">
        <ele>1765.6</ele>
        <time>2017-02-10T14:03:32Z</time>
      </trkpt>
      <trkpt lat="42.72867" lon="1.9661">
        <ele>1765.12</ele>
        <time>2017-02-10T14:03:40Z</time>
      </trkpt>
      <trkpt lat="42.72865" lon="1.96598">
        <ele>1763.68</ele>
        <time>2017-02-10T14:03:48Z</time>
      </trkpt>
      <trkpt lat="42.72861" lon="1.96586">
        <ele>1762.23</ele>
        <time>2017-02-10T14:03:57Z</time>
      </trkpt>
      <trkpt lat="42.72859" lon="1.96572">
        <ele>1761.75</ele>
        <time>2017-02-10T14:04:06Z</time>
      </trkpt>
      <trkpt lat="42.72857" lon="1.96559">
        <ele>1761.27</ele>
        <time>2017-02-10T14:04:15Z</time>
      </trkpt>
      <trkpt lat="42.72857" lon="1.96544">
        <ele>1759.83</ele>
        <time>2017-02-10T14:04:24Z</time>
      </trkpt>
      <trkpt lat="42.72858" lon="1.96531">
        <ele>1758.87</ele>
        <time>2017-02-10T14:04:32Z</time>
      </trkpt>
      <trkpt lat="42.72859" lon="1.96518">
        <ele>1757.43</ele>
        <time>2017-02-10T14:04:40Z</time>
      </trkpt>
      <trkpt lat="42.7286" lon="1.96506">
        <ele>1757.43</ele>
        <time>2017-02-10T14:04:49Z</time>
      </trkpt>
      <trkpt lat="42.7286" lon="1.96493">
        <ele>1756.47</ele>
        <time>2017-02-10T14:04:58Z</time>
      </trkpt>
      <trkpt lat="42.72861" lon="1.96481">
        <ele>1755.5</ele>
        <time>2017-02-10T14:05:09Z</time>
      </trkpt>
      <trkpt lat="42.72866" lon="1.96469">
        <ele>1755.02</ele>
        <time>2017-02-10T14:05:21Z</time>
      </trkpt>
      <trkpt lat="42.72869" lon="1.96457">
        <ele>1754.06</ele>
        <time>2017-02-10T14:05:31Z</time>
      </trkpt>
      <trkpt lat="42.72873" lon="1.96446">
        <ele>1752.14</ele>
        <time>2017-02-10T14:05:43Z</time>
      </trkpt>
      <trkpt lat="42.7288" lon="1.96436">
        <ele>1751.66</ele>
        <time>2017-02-10T14:05:54Z</time>
      </trkpt>
      <trkpt lat="42.72885" lon="1.96423">
        <ele>1750.7</ele>
        <time>2017-02-10T14:06:04Z</time>
      </trkpt>
      <trkpt lat="42.72891" lon="1.96412">
        <ele>1749.74</ele>
        <time>2017-02-10T14:06:13Z</time>
      </trkpt>
      <trkpt lat="42.72894" lon="1.96401">
        <ele>1748.78</ele>
        <time>2017-02-10T14:06:24Z</time>
      </trkpt>
      <trkpt lat="42.72899" lon="1.96388">
        <ele>1747.81</ele>
        <time>2017-02-10T14:06:33Z</time>
      </trkpt>
      <trkpt lat="42.72904" lon="1.96377">
        <ele>1746.85</ele>
        <time>2017-02-10T14:06:42Z</time>
      </trkpt>
      <trkpt lat="42.72907" lon="1.96366">
        <ele>1745.89</ele>
        <time>2017-02-10T14:06:51Z</time>
      </trkpt>
      <trkpt lat="42.72912" lon="1.96354">
        <ele>1744.93</ele>
        <time>2017-02-10T14:07:00Z</time>
      </trkpt>
      <trkpt lat="42.72917" lon="1.96342">
        <ele>1743.97</ele>
        <time>2017-02-10T14:07:09Z</time>
      </trkpt>
      <trkpt lat="42.72921" lon="1.9633">
        <ele>1743.01</ele>
        <time>2017-02-10T14:07:18Z</time>
      </trkpt>
      <trkpt lat="42.72926" lon="1.96319">
        <ele>1741.57</ele>
        <time>2017-02-10T14:07:27Z</time>
      </trkpt>
      <trkpt lat="42.72931" lon="1.96308">
        <ele>1741.08</ele>
        <time>2017-02-10T14:07:36Z</time>
      </trkpt>
      <trkpt lat="42.72934" lon="1.96297">
        <ele>1740.6</ele>
        <time>2017-02-10T14:07:45Z</time>
      </trkpt>
      <trkpt lat="42.72939" lon="1.96286">
        <ele>1739.16</ele>
        <time>2017-02-10T14:07:54Z</time>
      </trkpt>
      <trkpt lat="42.72944" lon="1.96275">
        <ele>1737.72</ele>
        <time>2017-02-10T14:08:03Z</time>
      </trkpt>
      <trkpt lat="42.72949" lon="1.96263">
        <ele>1737.24</ele>
        <time>2017-02-10T14:08:12Z</time>
      </trkpt>
      <trkpt lat="42.72954" lon="1.96252">
        <ele>1735.8</ele>
        <time>2017-02-10T14:08:20Z</time>
      </trkpt>
      <trkpt lat="42.72959" lon="1.96241">
        <ele>1734.84</ele>
        <time>2017-02-10T14:08:29Z</time>
      </trkpt>
      <trkpt lat="42.72966" lon="1.96229">
        <ele>1733.39</ele>
        <time>2017-02-10T14:08:38Z</time>
      </trkpt>
      <trkpt lat="42.7297" lon="1.96218">
        <ele>1732.43</ele>
        <time>2017-02-10T14:08:47Z</time>
      </trkpt>
      <trkpt lat="42.72975" lon="1.96208">
        <ele>1731.95</ele>
        <time>2017-02-10T14:08:55Z</time>
      </trkpt>
      <trkpt lat="42.72978" lon="1.96197">
        <ele>1730.03</ele>
        <time>2017-02-10T14:09:04Z</time>
      </trkpt>
      <trkpt lat="42.7298" lon="1.96185">
        <ele>1729.55</ele>
        <time>2017-02-10T14:09:16Z</time>
      </trkpt>
      <trkpt lat="42.72985" lon="1.96172">
        <ele>1728.59</ele>
        <time>2017-02-10T14:09:26Z</time>
      </trkpt>
      <trkpt lat="42.72985" lon="1.96159">
        <ele>1727.15</ele>
        <time>2017-02-10T14:09:35Z</time>
      </trkpt>
      <trkpt lat="42.72977" lon="1.96151">
        <ele>1726.67</ele>
        <time>2017-02-10T14:10:42Z</time>
      </trkpt>
      <trkpt lat="42.72976" lon="1.96167">
        <ele>1726.18</ele>
        <time>2017-02-10T14:11:11Z</time>
      </trkpt>
      <trkpt lat="42.72974" lon="1.96181">
        <ele>1726.67</ele>
        <time>2017-02-10T14:11:22Z</time>
      </trkpt>
      <trkpt lat="42.7297" lon="1.96194">
        <ele>1725.22</ele>
        <time>2017-02-10T14:11:33Z</time>
      </trkpt>
      <trkpt lat="42.72964" lon="1.96202">
        <ele>1724.74</ele>
        <time>2017-02-10T14:11:55Z</time>
      </trkpt>
      <trkpt lat="42.72964" lon="1.96204">
        <ele>1724.26</ele>
        <time>2017-02-10T14:12:39Z</time>
      </trkpt>
      <trkpt lat="42.7296" lon="1.9621">
        <ele>1723.78</ele>
        <time>2017-02-10T14:14:27Z</time>
      </trkpt>
      <trkpt lat="42.72953" lon="1.96218">
        <ele>1723.3</ele>
        <time>2017-02-10T14:14:47Z</time>
      </trkpt>
      <trkpt lat="42.72958" lon="1.96216">
        <ele>1722.82</ele>
        <time>2017-02-10T14:15:40Z</time>
      </trkpt>
      <trkpt lat="42.72957" lon="1.96215">
        <ele>1723.3</ele>
        <time>2017-02-10T14:15:58Z</time>
      </trkpt>
      <trkpt lat="42.72955" lon="1.9622">
        <ele>1723.3</ele>
        <time>2017-02-10T14:16:46Z</time>
      </trkpt>
      <trkpt lat="42.72948" lon="1.96229">
        <ele>1721.86</ele>
        <time>2017-02-10T14:16:56Z</time>
      </trkpt>
      <trkpt lat="42.72942" lon="1.96236">
        <ele>1721.38</ele>
        <time>2017-02-10T14:17:06Z</time>
      </trkpt>
      <trkpt lat="42.72935" lon="1.96244">
        <ele>1719.46</ele>
        <time>2017-02-10T14:17:16Z</time>
      </trkpt>
      <trkpt lat="42.72929" lon="1.96252">
        <ele>1718.49</ele>
        <time>2017-02-10T14:17:26Z</time>
      </trkpt>
      <trkpt lat="42.72921" lon="1.96261">
        <ele>1718.01</ele>
        <time>2017-02-10T14:17:43Z</time>
      </trkpt>
      <trkpt lat="42.72913" lon="1.9627">
        <ele>1716.57</ele>
        <time>2017-02-10T14:17:53Z</time>
      </trkpt>
      <trkpt lat="42.72906" lon="1.96277">
        <ele>1715.13</ele>
        <time>2017-02-10T14:18:03Z</time>
      </trkpt>
      <trkpt lat="42.72898" lon="1.96284">
        <ele>1714.17</ele>
        <time>2017-02-10T14:18:13Z</time>
      </trkpt>
      <trkpt lat="42.72891" lon="1.96291">
        <ele>1712.73</ele>
        <time>2017-02-10T14:18:22Z</time>
      </trkpt>
      <trkpt lat="42.72882" lon="1.96297">
        <ele>1711.76</ele>
        <time>2017-02-10T14:18:31Z</time>
      </trkpt>
      <trkpt lat="42.72875" lon="1.96304">
        <ele>1710.8</ele>
        <time>2017-02-10T14:18:40Z</time>
      </trkpt>
      <trkpt lat="42.72867" lon="1.96311">
        <ele>1709.84</ele>
        <time>2017-02-10T14:18:49Z</time>
      </trkpt>
      <trkpt lat="42.72858" lon="1.96316">
        <ele>1708.88</ele>
        <time>2017-02-10T14:18:57Z</time>
      </trkpt>
      <trkpt lat="42.72849" lon="1.96322">
        <ele>1706.96</ele>
        <time>2017-02-10T14:19:06Z</time>
      </trkpt>
      <trkpt lat="42.7284" lon="1.96328">
        <ele>1706</ele>
        <time>2017-02-10T14:19:15Z</time>
      </trkpt>
      <trkpt lat="42.72832" lon="1.96334">
        <ele>1705.52</ele>
        <time>2017-02-10T14:19:25Z</time>
      </trkpt>
      <trkpt lat="42.72824" lon="1.96342">
        <ele>1704.55</ele>
        <time>2017-02-10T14:19:36Z</time>
      </trkpt>
      <trkpt lat="42.72815" lon="1.96349">
        <ele>1703.59</ele>
        <time>2017-02-10T14:19:50Z</time>
      </trkpt>
      <trkpt lat="42.72807" lon="1.96356">
        <ele>1702.15</ele>
        <time>2017-02-10T14:20:01Z</time>
      </trkpt>
      <trkpt lat="42.72799" lon="1.96362">
        <ele>1700.71</ele>
        <time>2017-02-10T14:20:11Z</time>
      </trkpt>
      <trkpt lat="42.72791" lon="1.96368">
        <ele>1700.23</ele>
        <time>2017-02-10T14:20:23Z</time>
      </trkpt>
      <trkpt lat="42.72783" lon="1.96377">
        <ele>1698.79</ele>
        <time>2017-02-10T14:20:36Z</time>
      </trkpt>
      <trkpt lat="42.72775" lon="1.96385">
        <ele>1697.34</ele>
        <time>2017-02-10T14:20:48Z</time>
      </trkpt>
      <trkpt lat="42.72769" lon="1.96396">
        <ele>1696.38</ele>
        <time>2017-02-10T14:21:00Z</time>
      </trkpt>
      <trkpt lat="42.7276" lon="1.96404">
        <ele>1694.94</ele>
        <time>2017-02-10T14:21:12Z</time>
      </trkpt>
      <trkpt lat="42.72752" lon="1.9641">
        <ele>1694.94</ele>
        <time>2017-02-10T14:21:23Z</time>
      </trkpt>
      <trkpt lat="42.72746" lon="1.96422">
        <ele>1693.5</ele>
        <time>2017-02-10T14:21:34Z</time>
      </trkpt>
      <trkpt lat="42.72739" lon="1.96437">
        <ele>1692.54</ele>
        <time>2017-02-10T14:21:48Z</time>
      </trkpt>
      <trkpt lat="42.72733" lon="1.96448">
        <ele>1691.58</ele>
        <time>2017-02-10T14:21:59Z</time>
      </trkpt>
      <trkpt lat="42.72725" lon="1.96454">
        <ele>1690.62</ele>
        <time>2017-02-10T14:22:09Z</time>
      </trkpt>
      <trkpt lat="42.72719" lon="1.96466">
        <ele>1690.14</ele>
        <time>2017-02-10T14:22:23Z</time>
      </trkpt>
      <trkpt lat="42.72714" lon="1.96482">
        <ele>1689.17</ele>
        <time>2017-02-10T14:22:41Z</time>
      </trkpt>
      <trkpt lat="42.72715" lon="1.96497">
        <ele>1690.14</ele>
        <time>2017-02-10T14:22:53Z</time>
      </trkpt>
      <trkpt lat="42.72721" lon="1.96511">
        <ele>1690.62</ele>
        <time>2017-02-10T14:23:04Z</time>
      </trkpt>
      <trkpt lat="42.72727" lon="1.96524">
        <ele>1689.65</ele>
        <time>2017-02-10T14:23:18Z</time>
      </trkpt>
      <trkpt lat="42.72727" lon="1.96524">
        <ele>1689.17</ele>
        <time>2017-02-10T14:24:22Z</time>
      </trkpt>
    </trkseg>
  </trk>
</gpx>